<?xml version="1.0" encoding="UTF-8" standalone="no" ?>
<gpx xmlns="http://www.topografix.com/GPX/1/1" xmlns:xsi="http://www.w3.org/2001/XMLSchema-instance" xsi:schemaLocation="http://www.topografix.com/GPX/1/1 http://www.topografix.com/GPX/1/1/gpx.xsd" version="1.1" creator="VisuGPX - https://www.visugpx.com">
  <metadata>
    <name>Samu's Cup 2019</name>
    <desc><![CDATA[régate des SAMU de France
port de Saint Mandrier sur mer
cagnard 16 Garches 2
embarcation Dufour 410
équipage Bruno Fred Cécile Coralyne Sophie Jean Marc Christian
belle météo sur la semaine 
1 BMS 28/05 pas de sortie
14ème/26
détail samuscup.fr]]></desc>
  </metadata>
  <trk>
    <name><![CDATA[Tracé actuel: 30 MAI 2019 09:34]]></name>
    <trkseg>
      <trkpt lat="43.08023" lon="5.92413">
        <ele>12.63</ele>
        <time>2019-05-30T07:34:47Z</time>
      </trkpt>
      <trkpt lat="43.08034" lon="5.9241">
        <ele>16</ele>
        <time>2019-05-30T07:35:01Z</time>
      </trkpt>
      <trkpt lat="43.08033" lon="5.92406">
        <ele>23.69</ele>
        <time>2019-05-30T07:35:21Z</time>
      </trkpt>
      <trkpt lat="43.08038" lon="5.92404">
        <ele>25.13</ele>
        <time>2019-05-30T07:35:41Z</time>
      </trkpt>
      <trkpt lat="43.08043" lon="5.92406">
        <ele>24.17</ele>
        <time>2019-05-30T07:36:06Z</time>
      </trkpt>
      <trkpt lat="43.08047" lon="5.92423">
        <ele>8.79</ele>
        <time>2019-05-30T07:36:28Z</time>
      </trkpt>
      <trkpt lat="43.08045" lon="5.92428">
        <ele>1.58</ele>
        <time>2019-05-30T07:36:48Z</time>
      </trkpt>
      <trkpt lat="43.08044" lon="5.92429">
        <ele>-1.3</ele>
        <time>2019-05-30T07:37:10Z</time>
      </trkpt>
      <trkpt lat="43.08043" lon="5.9243">
        <ele>-1.79</ele>
        <time>2019-05-30T07:37:31Z</time>
      </trkpt>
      <trkpt lat="43.08043" lon="5.92431">
        <ele>-2.75</ele>
        <time>2019-05-30T07:37:57Z</time>
      </trkpt>
      <trkpt lat="43.08043" lon="5.92432">
        <ele>-2.75</ele>
        <time>2019-05-30T07:38:23Z</time>
      </trkpt>
      <trkpt lat="43.08043" lon="5.92432">
        <ele>-2.27</ele>
        <time>2019-05-30T07:38:46Z</time>
      </trkpt>
      <trkpt lat="43.08043" lon="5.92432">
        <ele>-2.27</ele>
        <time>2019-05-30T07:39:03Z</time>
      </trkpt>
      <trkpt lat="43.08043" lon="5.92432">
        <ele>-2.27</ele>
        <time>2019-05-30T07:39:21Z</time>
      </trkpt>
      <trkpt lat="43.08044" lon="5.92432">
        <ele>-2.27</ele>
        <time>2019-05-30T07:39:41Z</time>
      </trkpt>
      <trkpt lat="43.08043" lon="5.92432">
        <ele>-2.27</ele>
        <time>2019-05-30T07:40:00Z</time>
      </trkpt>
      <trkpt lat="43.08044" lon="5.92432">
        <ele>-2.27</ele>
        <time>2019-05-30T07:40:24Z</time>
      </trkpt>
      <trkpt lat="43.08043" lon="5.92432">
        <ele>-2.27</ele>
        <time>2019-05-30T07:40:44Z</time>
      </trkpt>
      <trkpt lat="43.08043" lon="5.92432">
        <ele>-2.75</ele>
        <time>2019-05-30T07:41:05Z</time>
      </trkpt>
      <trkpt lat="43.08043" lon="5.92433">
        <ele>-3.23</ele>
        <time>2019-05-30T07:41:30Z</time>
      </trkpt>
      <trkpt lat="43.08038" lon="5.9244">
        <ele>-1.79</ele>
        <time>2019-05-30T07:41:49Z</time>
      </trkpt>
      <trkpt lat="43.08037" lon="5.92445">
        <ele>-1.3</ele>
        <time>2019-05-30T07:41:53Z</time>
      </trkpt>
      <trkpt lat="43.08044" lon="5.92481">
        <ele>0.14</ele>
        <time>2019-05-30T07:42:17Z</time>
      </trkpt>
      <trkpt lat="43.08061" lon="5.92501">
        <ele>0.14</ele>
        <time>2019-05-30T07:42:37Z</time>
      </trkpt>
      <trkpt lat="43.08096" lon="5.92506">
        <ele>-1.3</ele>
        <time>2019-05-30T07:42:55Z</time>
      </trkpt>
      <trkpt lat="43.08141" lon="5.92507">
        <ele>-2.27</ele>
        <time>2019-05-30T07:43:15Z</time>
      </trkpt>
      <trkpt lat="43.08193" lon="5.92504">
        <ele>-2.75</ele>
        <time>2019-05-30T07:43:36Z</time>
      </trkpt>
      <trkpt lat="43.08255" lon="5.92502">
        <ele>-4.67</ele>
        <time>2019-05-30T07:44:02Z</time>
      </trkpt>
      <trkpt lat="43.08313" lon="5.92507">
        <ele>-4.19</ele>
        <time>2019-05-30T07:44:26Z</time>
      </trkpt>
      <trkpt lat="43.08358" lon="5.92521">
        <ele>-3.71</ele>
        <time>2019-05-30T07:44:45Z</time>
      </trkpt>
      <trkpt lat="43.08408" lon="5.92556">
        <ele>-3.23</ele>
        <time>2019-05-30T07:45:08Z</time>
      </trkpt>
      <trkpt lat="43.08452" lon="5.92593">
        <ele>-3.71</ele>
        <time>2019-05-30T07:45:29Z</time>
      </trkpt>
      <trkpt lat="43.08495" lon="5.92633">
        <ele>-3.71</ele>
        <time>2019-05-30T07:45:50Z</time>
      </trkpt>
      <trkpt lat="43.08532" lon="5.92661">
        <ele>-3.71</ele>
        <time>2019-05-30T07:46:07Z</time>
      </trkpt>
      <trkpt lat="43.08579" lon="5.92697">
        <ele>-1.79</ele>
        <time>2019-05-30T07:46:27Z</time>
      </trkpt>
      <trkpt lat="43.08623" lon="5.92736">
        <ele>-2.27</ele>
        <time>2019-05-30T07:46:45Z</time>
      </trkpt>
      <trkpt lat="43.08658" lon="5.92768">
        <ele>-2.27</ele>
        <time>2019-05-30T07:47:00Z</time>
      </trkpt>
      <trkpt lat="43.08701" lon="5.92809">
        <ele>-3.23</ele>
        <time>2019-05-30T07:47:19Z</time>
      </trkpt>
      <trkpt lat="43.08744" lon="5.92847">
        <ele>-2.27</ele>
        <time>2019-05-30T07:47:38Z</time>
      </trkpt>
      <trkpt lat="43.08778" lon="5.92877">
        <ele>-2.27</ele>
        <time>2019-05-30T07:47:54Z</time>
      </trkpt>
      <trkpt lat="43.08827" lon="5.92918">
        <ele>-2.27</ele>
        <time>2019-05-30T07:48:14Z</time>
      </trkpt>
      <trkpt lat="43.08873" lon="5.92956">
        <ele>-1.3</ele>
        <time>2019-05-30T07:48:32Z</time>
      </trkpt>
      <trkpt lat="43.08924" lon="5.92998">
        <ele>-2.27</ele>
        <time>2019-05-30T07:48:52Z</time>
      </trkpt>
      <trkpt lat="43.08977" lon="5.93038">
        <ele>-2.75</ele>
        <time>2019-05-30T07:49:12Z</time>
      </trkpt>
      <trkpt lat="43.09034" lon="5.93079">
        <ele>-2.75</ele>
        <time>2019-05-30T07:49:33Z</time>
      </trkpt>
      <trkpt lat="43.09079" lon="5.9312">
        <ele>-3.23</ele>
        <time>2019-05-30T07:49:51Z</time>
      </trkpt>
      <trkpt lat="43.09114" lon="5.93154">
        <ele>-3.71</ele>
        <time>2019-05-30T07:50:05Z</time>
      </trkpt>
      <trkpt lat="43.09161" lon="5.93199">
        <ele>-3.23</ele>
        <time>2019-05-30T07:50:24Z</time>
      </trkpt>
      <trkpt lat="43.09201" lon="5.93217">
        <ele>-2.27</ele>
        <time>2019-05-30T07:50:40Z</time>
      </trkpt>
      <trkpt lat="43.09237" lon="5.93225">
        <ele>-1.79</ele>
        <time>2019-05-30T07:51:00Z</time>
      </trkpt>
      <trkpt lat="43.09258" lon="5.93203">
        <ele>-2.27</ele>
        <time>2019-05-30T07:51:20Z</time>
      </trkpt>
      <trkpt lat="43.09271" lon="5.93178">
        <ele>-1.79</ele>
        <time>2019-05-30T07:51:37Z</time>
      </trkpt>
      <trkpt lat="43.09278" lon="5.93158">
        <ele>-1.3</ele>
        <time>2019-05-30T07:51:51Z</time>
      </trkpt>
      <trkpt lat="43.09273" lon="5.93125">
        <ele>-1.79</ele>
        <time>2019-05-30T07:52:11Z</time>
      </trkpt>
      <trkpt lat="43.09265" lon="5.93091">
        <ele>-2.27</ele>
        <time>2019-05-30T07:52:32Z</time>
      </trkpt>
      <trkpt lat="43.09258" lon="5.93063">
        <ele>-2.27</ele>
        <time>2019-05-30T07:52:49Z</time>
      </trkpt>
      <trkpt lat="43.09252" lon="5.93028">
        <ele>-2.27</ele>
        <time>2019-05-30T07:53:11Z</time>
      </trkpt>
      <trkpt lat="43.09245" lon="5.92996">
        <ele>-3.23</ele>
        <time>2019-05-30T07:53:30Z</time>
      </trkpt>
      <trkpt lat="43.09257" lon="5.9298">
        <ele>-3.23</ele>
        <time>2019-05-30T07:53:46Z</time>
      </trkpt>
      <trkpt lat="43.09262" lon="5.92983">
        <ele>-3.71</ele>
        <time>2019-05-30T07:53:52Z</time>
      </trkpt>
      <trkpt lat="43.0927" lon="5.93017">
        <ele>-4.67</ele>
        <time>2019-05-30T07:54:12Z</time>
      </trkpt>
      <trkpt lat="43.09284" lon="5.93067">
        <ele>-4.67</ele>
        <time>2019-05-30T07:54:36Z</time>
      </trkpt>
      <trkpt lat="43.09301" lon="5.93101">
        <ele>-4.19</ele>
        <time>2019-05-30T07:54:54Z</time>
      </trkpt>
      <trkpt lat="43.09325" lon="5.93146">
        <ele>-3.71</ele>
        <time>2019-05-30T07:55:17Z</time>
      </trkpt>
      <trkpt lat="43.09345" lon="5.93187">
        <ele>-3.71</ele>
        <time>2019-05-30T07:55:37Z</time>
      </trkpt>
      <trkpt lat="43.09365" lon="5.93236">
        <ele>-4.19</ele>
        <time>2019-05-30T07:56:00Z</time>
      </trkpt>
      <trkpt lat="43.09386" lon="5.9327">
        <ele>-3.71</ele>
        <time>2019-05-30T07:56:19Z</time>
      </trkpt>
      <trkpt lat="43.09412" lon="5.93305">
        <ele>-2.75</ele>
        <time>2019-05-30T07:56:34Z</time>
      </trkpt>
      <trkpt lat="43.09453" lon="5.93362">
        <ele>-3.23</ele>
        <time>2019-05-30T07:56:54Z</time>
      </trkpt>
      <trkpt lat="43.09485" lon="5.934">
        <ele>-3.23</ele>
        <time>2019-05-30T07:57:08Z</time>
      </trkpt>
      <trkpt lat="43.09536" lon="5.93461">
        <ele>-2.75</ele>
        <time>2019-05-30T07:57:30Z</time>
      </trkpt>
      <trkpt lat="43.09583" lon="5.9351">
        <ele>-3.23</ele>
        <time>2019-05-30T07:57:49Z</time>
      </trkpt>
      <trkpt lat="43.0962" lon="5.93553">
        <ele>-3.23</ele>
        <time>2019-05-30T07:58:05Z</time>
      </trkpt>
      <trkpt lat="43.09662" lon="5.93613">
        <ele>-3.71</ele>
        <time>2019-05-30T07:58:25Z</time>
      </trkpt>
      <trkpt lat="43.09701" lon="5.93676">
        <ele>-2.27</ele>
        <time>2019-05-30T07:58:45Z</time>
      </trkpt>
      <trkpt lat="43.09741" lon="5.93729">
        <ele>-3.23</ele>
        <time>2019-05-30T07:59:06Z</time>
      </trkpt>
      <trkpt lat="43.09775" lon="5.9377">
        <ele>-2.75</ele>
        <time>2019-05-30T07:59:24Z</time>
      </trkpt>
      <trkpt lat="43.09816" lon="5.93822">
        <ele>-0.82</ele>
        <time>2019-05-30T07:59:47Z</time>
      </trkpt>
      <trkpt lat="43.0985" lon="5.93872">
        <ele>-0.34</ele>
        <time>2019-05-30T08:00:07Z</time>
      </trkpt>
      <trkpt lat="43.09885" lon="5.93917">
        <ele>-0.82</ele>
        <time>2019-05-30T08:00:27Z</time>
      </trkpt>
      <trkpt lat="43.09916" lon="5.9395">
        <ele>-0.82</ele>
        <time>2019-05-30T08:00:43Z</time>
      </trkpt>
      <trkpt lat="43.09952" lon="5.93989">
        <ele>-1.3</ele>
        <time>2019-05-30T08:01:02Z</time>
      </trkpt>
      <trkpt lat="43.09982" lon="5.94018">
        <ele>-2.27</ele>
        <time>2019-05-30T08:01:22Z</time>
      </trkpt>
      <trkpt lat="43.1" lon="5.94036">
        <ele>-2.75</ele>
        <time>2019-05-30T08:01:38Z</time>
      </trkpt>
      <trkpt lat="43.10015" lon="5.94055">
        <ele>-2.75</ele>
        <time>2019-05-30T08:01:54Z</time>
      </trkpt>
      <trkpt lat="43.10028" lon="5.94079">
        <ele>-2.75</ele>
        <time>2019-05-30T08:02:13Z</time>
      </trkpt>
      <trkpt lat="43.10024" lon="5.94111">
        <ele>-1.79</ele>
        <time>2019-05-30T08:02:35Z</time>
      </trkpt>
      <trkpt lat="43.10022" lon="5.94144">
        <ele>-1.3</ele>
        <time>2019-05-30T08:02:58Z</time>
      </trkpt>
      <trkpt lat="43.10022" lon="5.94171">
        <ele>-0.34</ele>
        <time>2019-05-30T08:03:17Z</time>
      </trkpt>
      <trkpt lat="43.10025" lon="5.94197">
        <ele>-0.82</ele>
        <time>2019-05-30T08:03:35Z</time>
      </trkpt>
      <trkpt lat="43.10029" lon="5.94218">
        <ele>-1.3</ele>
        <time>2019-05-30T08:03:50Z</time>
      </trkpt>
      <trkpt lat="43.10035" lon="5.94249">
        <ele>-1.3</ele>
        <time>2019-05-30T08:04:12Z</time>
      </trkpt>
      <trkpt lat="43.10047" lon="5.9427">
        <ele>-1.3</ele>
        <time>2019-05-30T08:04:32Z</time>
      </trkpt>
      <trkpt lat="43.10059" lon="5.94287">
        <ele>-0.82</ele>
        <time>2019-05-30T08:04:48Z</time>
      </trkpt>
      <trkpt lat="43.10073" lon="5.94306">
        <ele>-0.82</ele>
        <time>2019-05-30T08:05:06Z</time>
      </trkpt>
      <trkpt lat="43.10081" lon="5.94334">
        <ele>-1.3</ele>
        <time>2019-05-30T08:05:26Z</time>
      </trkpt>
      <trkpt lat="43.10085" lon="5.94366">
        <ele>-1.79</ele>
        <time>2019-05-30T08:05:49Z</time>
      </trkpt>
      <trkpt lat="43.10098" lon="5.94396">
        <ele>-1.3</ele>
        <time>2019-05-30T08:06:12Z</time>
      </trkpt>
      <trkpt lat="43.10095" lon="5.94419">
        <ele>-1.3</ele>
        <time>2019-05-30T08:06:27Z</time>
      </trkpt>
      <trkpt lat="43.10079" lon="5.94413">
        <ele>-2.27</ele>
        <time>2019-05-30T08:06:41Z</time>
      </trkpt>
      <trkpt lat="43.10081" lon="5.94377">
        <ele>-1.3</ele>
        <time>2019-05-30T08:07:04Z</time>
      </trkpt>
      <trkpt lat="43.10079" lon="5.9435">
        <ele>-1.79</ele>
        <time>2019-05-30T08:07:22Z</time>
      </trkpt>
      <trkpt lat="43.10074" lon="5.94322">
        <ele>-2.27</ele>
        <time>2019-05-30T08:07:39Z</time>
      </trkpt>
      <trkpt lat="43.10066" lon="5.94284">
        <ele>-1.79</ele>
        <time>2019-05-30T08:08:01Z</time>
      </trkpt>
      <trkpt lat="43.10076" lon="5.94262">
        <ele>-1.79</ele>
        <time>2019-05-30T08:08:16Z</time>
      </trkpt>
      <trkpt lat="43.10101" lon="5.94269">
        <ele>-0.82</ele>
        <time>2019-05-30T08:08:41Z</time>
      </trkpt>
      <trkpt lat="43.10103" lon="5.94271">
        <ele>-0.82</ele>
        <time>2019-05-30T08:08:43Z</time>
      </trkpt>
      <trkpt lat="43.10107" lon="5.94276">
        <ele>-1.3</ele>
        <time>2019-05-30T08:08:47Z</time>
      </trkpt>
      <trkpt lat="43.10099" lon="5.94296">
        <ele>-0.82</ele>
        <time>2019-05-30T08:09:03Z</time>
      </trkpt>
      <trkpt lat="43.10083" lon="5.9428">
        <ele>-2.75</ele>
        <time>2019-05-30T08:09:21Z</time>
      </trkpt>
      <trkpt lat="43.10075" lon="5.94268">
        <ele>-2.75</ele>
        <time>2019-05-30T08:09:30Z</time>
      </trkpt>
      <trkpt lat="43.10072" lon="5.94261">
        <ele>-2.75</ele>
        <time>2019-05-30T08:09:35Z</time>
      </trkpt>
      <trkpt lat="43.10071" lon="5.9423">
        <ele>-2.27</ele>
        <time>2019-05-30T08:09:54Z</time>
      </trkpt>
      <trkpt lat="43.1008" lon="5.94203">
        <ele>-0.82</ele>
        <time>2019-05-30T08:10:13Z</time>
      </trkpt>
      <trkpt lat="43.10079" lon="5.94168">
        <ele>-1.79</ele>
        <time>2019-05-30T08:10:34Z</time>
      </trkpt>
      <trkpt lat="43.10078" lon="5.94131">
        <ele>-2.27</ele>
        <time>2019-05-30T08:10:55Z</time>
      </trkpt>
      <trkpt lat="43.10089" lon="5.94098">
        <ele>-1.79</ele>
        <time>2019-05-30T08:11:17Z</time>
      </trkpt>
      <trkpt lat="43.10107" lon="5.94075">
        <ele>-1.3</ele>
        <time>2019-05-30T08:11:38Z</time>
      </trkpt>
      <trkpt lat="43.10129" lon="5.94065">
        <ele>-0.82</ele>
        <time>2019-05-30T08:11:57Z</time>
      </trkpt>
      <trkpt lat="43.1015" lon="5.94065">
        <ele>-0.34</ele>
        <time>2019-05-30T08:12:15Z</time>
      </trkpt>
      <trkpt lat="43.10172" lon="5.94066">
        <ele>-0.82</ele>
        <time>2019-05-30T08:12:35Z</time>
      </trkpt>
      <trkpt lat="43.10189" lon="5.94079">
        <ele>-0.82</ele>
        <time>2019-05-30T08:12:54Z</time>
      </trkpt>
      <trkpt lat="43.10205" lon="5.94094">
        <ele>-0.82</ele>
        <time>2019-05-30T08:13:12Z</time>
      </trkpt>
      <trkpt lat="43.10224" lon="5.94102">
        <ele>-0.82</ele>
        <time>2019-05-30T08:13:30Z</time>
      </trkpt>
      <trkpt lat="43.10249" lon="5.94107">
        <ele>-0.34</ele>
        <time>2019-05-30T08:13:52Z</time>
      </trkpt>
      <trkpt lat="43.10271" lon="5.94121">
        <ele>-0.82</ele>
        <time>2019-05-30T08:14:14Z</time>
      </trkpt>
      <trkpt lat="43.10271" lon="5.94145">
        <ele>-1.79</ele>
        <time>2019-05-30T08:14:32Z</time>
      </trkpt>
      <trkpt lat="43.10271" lon="5.94174">
        <ele>-0.82</ele>
        <time>2019-05-30T08:14:52Z</time>
      </trkpt>
      <trkpt lat="43.10272" lon="5.94204">
        <ele>-0.34</ele>
        <time>2019-05-30T08:15:14Z</time>
      </trkpt>
      <trkpt lat="43.10285" lon="5.94227">
        <ele>-0.82</ele>
        <time>2019-05-30T08:15:35Z</time>
      </trkpt>
      <trkpt lat="43.10305" lon="5.94226">
        <ele>-0.82</ele>
        <time>2019-05-30T08:15:54Z</time>
      </trkpt>
      <trkpt lat="43.10315" lon="5.9419">
        <ele>-0.82</ele>
        <time>2019-05-30T08:16:19Z</time>
      </trkpt>
      <trkpt lat="43.10316" lon="5.94159">
        <ele>-1.3</ele>
        <time>2019-05-30T08:16:39Z</time>
      </trkpt>
      <trkpt lat="43.1031" lon="5.94131">
        <ele>-1.79</ele>
        <time>2019-05-30T08:16:56Z</time>
      </trkpt>
      <trkpt lat="43.10305" lon="5.94107">
        <ele>-1.79</ele>
        <time>2019-05-30T08:17:11Z</time>
      </trkpt>
      <trkpt lat="43.10311" lon="5.9407">
        <ele>-2.75</ele>
        <time>2019-05-30T08:17:33Z</time>
      </trkpt>
      <trkpt lat="43.10332" lon="5.94043">
        <ele>-3.23</ele>
        <time>2019-05-30T08:17:58Z</time>
      </trkpt>
      <trkpt lat="43.10352" lon="5.94017">
        <ele>-2.75</ele>
        <time>2019-05-30T08:18:21Z</time>
      </trkpt>
      <trkpt lat="43.10348" lon="5.93994">
        <ele>-1.79</ele>
        <time>2019-05-30T08:18:39Z</time>
      </trkpt>
      <trkpt lat="43.10334" lon="5.94003">
        <ele>-2.27</ele>
        <time>2019-05-30T08:18:56Z</time>
      </trkpt>
      <trkpt lat="43.10319" lon="5.94027">
        <ele>-2.27</ele>
        <time>2019-05-30T08:19:19Z</time>
      </trkpt>
      <trkpt lat="43.10318" lon="5.94053">
        <ele>-0.34</ele>
        <time>2019-05-30T08:19:40Z</time>
      </trkpt>
      <trkpt lat="43.10318" lon="5.94059">
        <ele>-0.34</ele>
        <time>2019-05-30T08:19:44Z</time>
      </trkpt>
      <trkpt lat="43.10324" lon="5.94087">
        <ele>0.14</ele>
        <time>2019-05-30T08:20:04Z</time>
      </trkpt>
      <trkpt lat="43.10335" lon="5.94104">
        <ele>-0.82</ele>
        <time>2019-05-30T08:20:18Z</time>
      </trkpt>
      <trkpt lat="43.1036" lon="5.94092">
        <ele>-1.79</ele>
        <time>2019-05-30T08:20:36Z</time>
      </trkpt>
      <trkpt lat="43.10372" lon="5.94064">
        <ele>-2.27</ele>
        <time>2019-05-30T08:20:52Z</time>
      </trkpt>
      <trkpt lat="43.1039" lon="5.9403">
        <ele>-1.79</ele>
        <time>2019-05-30T08:21:14Z</time>
      </trkpt>
      <trkpt lat="43.10393" lon="5.94012">
        <ele>-0.82</ele>
        <time>2019-05-30T08:21:24Z</time>
      </trkpt>
      <trkpt lat="43.10397" lon="5.93992">
        <ele>-1.79</ele>
        <time>2019-05-30T08:21:37Z</time>
      </trkpt>
      <trkpt lat="43.10397" lon="5.93983">
        <ele>-1.79</ele>
        <time>2019-05-30T08:21:42Z</time>
      </trkpt>
      <trkpt lat="43.10393" lon="5.93978">
        <ele>-2.27</ele>
        <time>2019-05-30T08:21:47Z</time>
      </trkpt>
      <trkpt lat="43.10387" lon="5.93968">
        <ele>-3.23</ele>
        <time>2019-05-30T08:21:55Z</time>
      </trkpt>
      <trkpt lat="43.10382" lon="5.9395">
        <ele>-2.75</ele>
        <time>2019-05-30T08:22:09Z</time>
      </trkpt>
      <trkpt lat="43.10371" lon="5.93954">
        <ele>-2.75</ele>
        <time>2019-05-30T08:22:23Z</time>
      </trkpt>
      <trkpt lat="43.10355" lon="5.93959">
        <ele>-1.79</ele>
        <time>2019-05-30T08:22:41Z</time>
      </trkpt>
      <trkpt lat="43.10337" lon="5.93969">
        <ele>-1.3</ele>
        <time>2019-05-30T08:23:03Z</time>
      </trkpt>
      <trkpt lat="43.10315" lon="5.93982">
        <ele>-2.75</ele>
        <time>2019-05-30T08:23:30Z</time>
      </trkpt>
      <trkpt lat="43.10297" lon="5.93993">
        <ele>-2.27</ele>
        <time>2019-05-30T08:23:54Z</time>
      </trkpt>
      <trkpt lat="43.10282" lon="5.94001">
        <ele>-2.75</ele>
        <time>2019-05-30T08:24:15Z</time>
      </trkpt>
      <trkpt lat="43.10269" lon="5.94014">
        <ele>-3.23</ele>
        <time>2019-05-30T08:24:38Z</time>
      </trkpt>
      <trkpt lat="43.10261" lon="5.94025">
        <ele>-3.23</ele>
        <time>2019-05-30T08:24:57Z</time>
      </trkpt>
      <trkpt lat="43.10252" lon="5.94035">
        <ele>-3.71</ele>
        <time>2019-05-30T08:25:18Z</time>
      </trkpt>
      <trkpt lat="43.10245" lon="5.94046">
        <ele>-3.23</ele>
        <time>2019-05-30T08:25:40Z</time>
      </trkpt>
      <trkpt lat="43.1024" lon="5.94052">
        <ele>-3.71</ele>
        <time>2019-05-30T08:25:58Z</time>
      </trkpt>
      <trkpt lat="43.10231" lon="5.94058">
        <ele>-3.23</ele>
        <time>2019-05-30T08:26:21Z</time>
      </trkpt>
      <trkpt lat="43.10226" lon="5.94064">
        <ele>-3.23</ele>
        <time>2019-05-30T08:26:38Z</time>
      </trkpt>
      <trkpt lat="43.10219" lon="5.9407">
        <ele>-3.71</ele>
        <time>2019-05-30T08:26:58Z</time>
      </trkpt>
      <trkpt lat="43.10212" lon="5.94075">
        <ele>-3.71</ele>
        <time>2019-05-30T08:27:17Z</time>
      </trkpt>
      <trkpt lat="43.10205" lon="5.94081">
        <ele>-3.71</ele>
        <time>2019-05-30T08:27:37Z</time>
      </trkpt>
      <trkpt lat="43.10199" lon="5.94085">
        <ele>-3.71</ele>
        <time>2019-05-30T08:27:56Z</time>
      </trkpt>
      <trkpt lat="43.1019" lon="5.94088">
        <ele>-3.23</ele>
        <time>2019-05-30T08:28:20Z</time>
      </trkpt>
      <trkpt lat="43.10187" lon="5.9409">
        <ele>-2.75</ele>
        <time>2019-05-30T08:28:37Z</time>
      </trkpt>
      <trkpt lat="43.10181" lon="5.94095">
        <ele>-2.75</ele>
        <time>2019-05-30T08:28:55Z</time>
      </trkpt>
      <trkpt lat="43.10173" lon="5.94101">
        <ele>-2.75</ele>
        <time>2019-05-30T08:29:16Z</time>
      </trkpt>
      <trkpt lat="43.10161" lon="5.94109">
        <ele>-1.79</ele>
        <time>2019-05-30T08:29:46Z</time>
      </trkpt>
      <trkpt lat="43.10157" lon="5.94112">
        <ele>-2.27</ele>
        <time>2019-05-30T08:30:06Z</time>
      </trkpt>
      <trkpt lat="43.10146" lon="5.94122">
        <ele>-2.27</ele>
        <time>2019-05-30T08:30:26Z</time>
      </trkpt>
      <trkpt lat="43.10134" lon="5.9413">
        <ele>-1.79</ele>
        <time>2019-05-30T08:30:51Z</time>
      </trkpt>
      <trkpt lat="43.10123" lon="5.94137">
        <ele>-0.82</ele>
        <time>2019-05-30T08:31:14Z</time>
      </trkpt>
      <trkpt lat="43.1011" lon="5.94144">
        <ele>-1.3</ele>
        <time>2019-05-30T08:31:41Z</time>
      </trkpt>
      <trkpt lat="43.10102" lon="5.94151">
        <ele>-1.79</ele>
        <time>2019-05-30T08:32:01Z</time>
      </trkpt>
      <trkpt lat="43.10092" lon="5.9416">
        <ele>-1.79</ele>
        <time>2019-05-30T08:32:22Z</time>
      </trkpt>
      <trkpt lat="43.10084" lon="5.9417">
        <ele>-1.3</ele>
        <time>2019-05-30T08:32:45Z</time>
      </trkpt>
      <trkpt lat="43.10074" lon="5.94182">
        <ele>-2.27</ele>
        <time>2019-05-30T08:33:09Z</time>
      </trkpt>
      <trkpt lat="43.10066" lon="5.94192">
        <ele>-2.75</ele>
        <time>2019-05-30T08:33:28Z</time>
      </trkpt>
      <trkpt lat="43.10057" lon="5.94203">
        <ele>-3.23</ele>
        <time>2019-05-30T08:33:50Z</time>
      </trkpt>
      <trkpt lat="43.1005" lon="5.94213">
        <ele>-2.75</ele>
        <time>2019-05-30T08:34:12Z</time>
      </trkpt>
      <trkpt lat="43.10041" lon="5.94223">
        <ele>-2.75</ele>
        <time>2019-05-30T08:34:35Z</time>
      </trkpt>
      <trkpt lat="43.10032" lon="5.94233">
        <ele>-3.71</ele>
        <time>2019-05-30T08:34:56Z</time>
      </trkpt>
      <trkpt lat="43.10023" lon="5.94245">
        <ele>-4.67</ele>
        <time>2019-05-30T08:35:20Z</time>
      </trkpt>
      <trkpt lat="43.10015" lon="5.94255">
        <ele>-3.71</ele>
        <time>2019-05-30T08:35:42Z</time>
      </trkpt>
      <trkpt lat="43.10007" lon="5.94266">
        <ele>-4.19</ele>
        <time>2019-05-30T08:36:02Z</time>
      </trkpt>
      <trkpt lat="43.09998" lon="5.94277">
        <ele>-4.67</ele>
        <time>2019-05-30T08:36:24Z</time>
      </trkpt>
      <trkpt lat="43.09991" lon="5.94286">
        <ele>-3.71</ele>
        <time>2019-05-30T08:36:42Z</time>
      </trkpt>
      <trkpt lat="43.09984" lon="5.94293">
        <ele>-2.75</ele>
        <time>2019-05-30T08:37:01Z</time>
      </trkpt>
      <trkpt lat="43.0998" lon="5.94299">
        <ele>-3.71</ele>
        <time>2019-05-30T08:37:21Z</time>
      </trkpt>
      <trkpt lat="43.09974" lon="5.94306">
        <ele>-3.23</ele>
        <time>2019-05-30T08:37:40Z</time>
      </trkpt>
      <trkpt lat="43.0997" lon="5.94314">
        <ele>-3.71</ele>
        <time>2019-05-30T08:37:56Z</time>
      </trkpt>
      <trkpt lat="43.09967" lon="5.94321">
        <ele>-3.23</ele>
        <time>2019-05-30T08:38:11Z</time>
      </trkpt>
      <trkpt lat="43.09963" lon="5.94328">
        <ele>-1.79</ele>
        <time>2019-05-30T08:38:28Z</time>
      </trkpt>
      <trkpt lat="43.09958" lon="5.94335">
        <ele>-2.75</ele>
        <time>2019-05-30T08:38:45Z</time>
      </trkpt>
      <trkpt lat="43.09954" lon="5.94339">
        <ele>-4.19</ele>
        <time>2019-05-30T08:38:59Z</time>
      </trkpt>
      <trkpt lat="43.09947" lon="5.94346">
        <ele>-3.23</ele>
        <time>2019-05-30T08:39:20Z</time>
      </trkpt>
      <trkpt lat="43.09943" lon="5.94351">
        <ele>-4.19</ele>
        <time>2019-05-30T08:39:37Z</time>
      </trkpt>
      <trkpt lat="43.09939" lon="5.94355">
        <ele>-4.19</ele>
        <time>2019-05-30T08:39:52Z</time>
      </trkpt>
      <trkpt lat="43.09933" lon="5.94361">
        <ele>-4.19</ele>
        <time>2019-05-30T08:40:13Z</time>
      </trkpt>
      <trkpt lat="43.09929" lon="5.94365">
        <ele>-4.67</ele>
        <time>2019-05-30T08:40:31Z</time>
      </trkpt>
      <trkpt lat="43.09925" lon="5.94369">
        <ele>-3.71</ele>
        <time>2019-05-30T08:40:47Z</time>
      </trkpt>
      <trkpt lat="43.09919" lon="5.94374">
        <ele>-2.75</ele>
        <time>2019-05-30T08:41:07Z</time>
      </trkpt>
      <trkpt lat="43.09917" lon="5.94377">
        <ele>-2.27</ele>
        <time>2019-05-30T08:41:20Z</time>
      </trkpt>
      <trkpt lat="43.09915" lon="5.9438">
        <ele>-1.79</ele>
        <time>2019-05-30T08:41:32Z</time>
      </trkpt>
      <trkpt lat="43.09912" lon="5.94383">
        <ele>-2.27</ele>
        <time>2019-05-30T08:41:45Z</time>
      </trkpt>
      <trkpt lat="43.09909" lon="5.94387">
        <ele>-1.79</ele>
        <time>2019-05-30T08:42:01Z</time>
      </trkpt>
      <trkpt lat="43.09906" lon="5.9439">
        <ele>-1.79</ele>
        <time>2019-05-30T08:42:17Z</time>
      </trkpt>
      <trkpt lat="43.09903" lon="5.94393">
        <ele>-1.3</ele>
        <time>2019-05-30T08:42:32Z</time>
      </trkpt>
      <trkpt lat="43.09901" lon="5.94396">
        <ele>-1.3</ele>
        <time>2019-05-30T08:42:44Z</time>
      </trkpt>
      <trkpt lat="43.09897" lon="5.94398">
        <ele>-1.3</ele>
        <time>2019-05-30T08:43:01Z</time>
      </trkpt>
      <trkpt lat="43.09895" lon="5.94401">
        <ele>-1.79</ele>
        <time>2019-05-30T08:43:15Z</time>
      </trkpt>
      <trkpt lat="43.09892" lon="5.94402">
        <ele>-2.27</ele>
        <time>2019-05-30T08:43:28Z</time>
      </trkpt>
      <trkpt lat="43.09889" lon="5.94405">
        <ele>-2.27</ele>
        <time>2019-05-30T08:43:40Z</time>
      </trkpt>
      <trkpt lat="43.09887" lon="5.94408">
        <ele>-1.79</ele>
        <time>2019-05-30T08:43:50Z</time>
      </trkpt>
      <trkpt lat="43.09885" lon="5.9441">
        <ele>-2.75</ele>
        <time>2019-05-30T08:44:05Z</time>
      </trkpt>
      <trkpt lat="43.09881" lon="5.94414">
        <ele>-3.23</ele>
        <time>2019-05-30T08:44:24Z</time>
      </trkpt>
      <trkpt lat="43.09878" lon="5.94416">
        <ele>-3.71</ele>
        <time>2019-05-30T08:44:39Z</time>
      </trkpt>
      <trkpt lat="43.09874" lon="5.94422">
        <ele>-2.75</ele>
        <time>2019-05-30T08:45:01Z</time>
      </trkpt>
      <trkpt lat="43.0987" lon="5.94425">
        <ele>-1.79</ele>
        <time>2019-05-30T08:45:17Z</time>
      </trkpt>
      <trkpt lat="43.09867" lon="5.94428">
        <ele>-1.79</ele>
        <time>2019-05-30T08:45:32Z</time>
      </trkpt>
      <trkpt lat="43.09862" lon="5.94431">
        <ele>-1.79</ele>
        <time>2019-05-30T08:45:53Z</time>
      </trkpt>
      <trkpt lat="43.0986" lon="5.94433">
        <ele>-1.79</ele>
        <time>2019-05-30T08:46:10Z</time>
      </trkpt>
      <trkpt lat="43.09855" lon="5.94437">
        <ele>-1.79</ele>
        <time>2019-05-30T08:46:28Z</time>
      </trkpt>
      <trkpt lat="43.09853" lon="5.9444">
        <ele>-1.79</ele>
        <time>2019-05-30T08:46:43Z</time>
      </trkpt>
      <trkpt lat="43.0985" lon="5.94446">
        <ele>-1.3</ele>
        <time>2019-05-30T08:46:59Z</time>
      </trkpt>
      <trkpt lat="43.09846" lon="5.94449">
        <ele>-1.79</ele>
        <time>2019-05-30T08:47:13Z</time>
      </trkpt>
      <trkpt lat="43.09844" lon="5.94451">
        <ele>-1.79</ele>
        <time>2019-05-30T08:47:24Z</time>
      </trkpt>
      <trkpt lat="43.09842" lon="5.94454">
        <ele>-1.3</ele>
        <time>2019-05-30T08:47:37Z</time>
      </trkpt>
      <trkpt lat="43.09839" lon="5.94458">
        <ele>-0.82</ele>
        <time>2019-05-30T08:47:54Z</time>
      </trkpt>
      <trkpt lat="43.09834" lon="5.94463">
        <ele>-1.3</ele>
        <time>2019-05-30T08:48:12Z</time>
      </trkpt>
      <trkpt lat="43.09832" lon="5.94466">
        <ele>-1.79</ele>
        <time>2019-05-30T08:48:27Z</time>
      </trkpt>
      <trkpt lat="43.09827" lon="5.9447">
        <ele>-2.27</ele>
        <time>2019-05-30T08:48:46Z</time>
      </trkpt>
      <trkpt lat="43.09824" lon="5.94473">
        <ele>-1.3</ele>
        <time>2019-05-30T08:48:59Z</time>
      </trkpt>
      <trkpt lat="43.09821" lon="5.94476">
        <ele>-1.3</ele>
        <time>2019-05-30T08:49:16Z</time>
      </trkpt>
      <trkpt lat="43.0982" lon="5.94479">
        <ele>-1.79</ele>
        <time>2019-05-30T08:49:30Z</time>
      </trkpt>
      <trkpt lat="43.09817" lon="5.94482">
        <ele>-1.3</ele>
        <time>2019-05-30T08:49:45Z</time>
      </trkpt>
      <trkpt lat="43.09813" lon="5.94485">
        <ele>-1.3</ele>
        <time>2019-05-30T08:50:00Z</time>
      </trkpt>
      <trkpt lat="43.09811" lon="5.94488">
        <ele>-0.82</ele>
        <time>2019-05-30T08:50:17Z</time>
      </trkpt>
      <trkpt lat="43.0981" lon="5.9449">
        <ele>-0.82</ele>
        <time>2019-05-30T08:50:34Z</time>
      </trkpt>
      <trkpt lat="43.09809" lon="5.94492">
        <ele>-0.34</ele>
        <time>2019-05-30T08:50:49Z</time>
      </trkpt>
      <trkpt lat="43.09808" lon="5.94494">
        <ele>-0.82</ele>
        <time>2019-05-30T08:51:05Z</time>
      </trkpt>
      <trkpt lat="43.09807" lon="5.94497">
        <ele>-1.3</ele>
        <time>2019-05-30T08:51:21Z</time>
      </trkpt>
      <trkpt lat="43.09805" lon="5.94502">
        <ele>-1.79</ele>
        <time>2019-05-30T08:51:35Z</time>
      </trkpt>
      <trkpt lat="43.09802" lon="5.94508">
        <ele>-2.27</ele>
        <time>2019-05-30T08:51:50Z</time>
      </trkpt>
      <trkpt lat="43.09799" lon="5.94513">
        <ele>-2.75</ele>
        <time>2019-05-30T08:52:10Z</time>
      </trkpt>
      <trkpt lat="43.09796" lon="5.94515">
        <ele>-3.71</ele>
        <time>2019-05-30T08:52:25Z</time>
      </trkpt>
      <trkpt lat="43.09792" lon="5.9452">
        <ele>-3.71</ele>
        <time>2019-05-30T08:52:42Z</time>
      </trkpt>
      <trkpt lat="43.09787" lon="5.94525">
        <ele>-2.75</ele>
        <time>2019-05-30T08:52:57Z</time>
      </trkpt>
      <trkpt lat="43.09782" lon="5.94532">
        <ele>-2.27</ele>
        <time>2019-05-30T08:53:16Z</time>
      </trkpt>
      <trkpt lat="43.09778" lon="5.94538">
        <ele>-1.3</ele>
        <time>2019-05-30T08:53:29Z</time>
      </trkpt>
      <trkpt lat="43.09776" lon="5.94539">
        <ele>-1.3</ele>
        <time>2019-05-30T08:53:39Z</time>
      </trkpt>
      <trkpt lat="43.09774" lon="5.94542">
        <ele>-1.3</ele>
        <time>2019-05-30T08:53:50Z</time>
      </trkpt>
      <trkpt lat="43.09771" lon="5.94545">
        <ele>-1.79</ele>
        <time>2019-05-30T08:54:04Z</time>
      </trkpt>
      <trkpt lat="43.09768" lon="5.94548">
        <ele>-2.75</ele>
        <time>2019-05-30T08:54:17Z</time>
      </trkpt>
      <trkpt lat="43.09766" lon="5.94551">
        <ele>-3.23</ele>
        <time>2019-05-30T08:54:33Z</time>
      </trkpt>
      <trkpt lat="43.09764" lon="5.94553">
        <ele>-3.23</ele>
        <time>2019-05-30T08:54:46Z</time>
      </trkpt>
      <trkpt lat="43.09761" lon="5.94556">
        <ele>-3.71</ele>
        <time>2019-05-30T08:54:58Z</time>
      </trkpt>
      <trkpt lat="43.09758" lon="5.94559">
        <ele>-3.23</ele>
        <time>2019-05-30T08:55:17Z</time>
      </trkpt>
      <trkpt lat="43.09755" lon="5.94563">
        <ele>-2.27</ele>
        <time>2019-05-30T08:55:33Z</time>
      </trkpt>
      <trkpt lat="43.09753" lon="5.94565">
        <ele>-1.79</ele>
        <time>2019-05-30T08:55:47Z</time>
      </trkpt>
      <trkpt lat="43.09752" lon="5.94568">
        <ele>-1.3</ele>
        <time>2019-05-30T08:56:04Z</time>
      </trkpt>
      <trkpt lat="43.0975" lon="5.94572">
        <ele>-2.75</ele>
        <time>2019-05-30T08:56:16Z</time>
      </trkpt>
      <trkpt lat="43.09747" lon="5.94575">
        <ele>-2.27</ele>
        <time>2019-05-30T08:56:30Z</time>
      </trkpt>
      <trkpt lat="43.09745" lon="5.94577">
        <ele>-2.27</ele>
        <time>2019-05-30T08:56:41Z</time>
      </trkpt>
      <trkpt lat="43.09743" lon="5.94579">
        <ele>-2.27</ele>
        <time>2019-05-30T08:56:56Z</time>
      </trkpt>
      <trkpt lat="43.09742" lon="5.9458">
        <ele>-1.79</ele>
        <time>2019-05-30T08:57:07Z</time>
      </trkpt>
      <trkpt lat="43.0974" lon="5.94581">
        <ele>-2.27</ele>
        <time>2019-05-30T08:57:23Z</time>
      </trkpt>
      <trkpt lat="43.09739" lon="5.94582">
        <ele>-2.27</ele>
        <time>2019-05-30T08:57:42Z</time>
      </trkpt>
      <trkpt lat="43.09734" lon="5.94591">
        <ele>-1.3</ele>
        <time>2019-05-30T08:58:06Z</time>
      </trkpt>
      <trkpt lat="43.09732" lon="5.94594">
        <ele>-0.82</ele>
        <time>2019-05-30T08:58:28Z</time>
      </trkpt>
      <trkpt lat="43.09728" lon="5.94604">
        <ele>-0.34</ele>
        <time>2019-05-30T08:58:53Z</time>
      </trkpt>
      <trkpt lat="43.09719" lon="5.94623">
        <ele>0.62</ele>
        <time>2019-05-30T08:59:15Z</time>
      </trkpt>
      <trkpt lat="43.09712" lon="5.94636">
        <ele>2.06</ele>
        <time>2019-05-30T08:59:39Z</time>
      </trkpt>
      <trkpt lat="43.09709" lon="5.94644">
        <ele>-0.82</ele>
        <time>2019-05-30T08:59:57Z</time>
      </trkpt>
      <trkpt lat="43.09702" lon="5.94654">
        <ele>-0.82</ele>
        <time>2019-05-30T09:00:18Z</time>
      </trkpt>
      <trkpt lat="43.09698" lon="5.9466">
        <ele>-2.27</ele>
        <time>2019-05-30T09:00:30Z</time>
      </trkpt>
      <trkpt lat="43.09695" lon="5.94666">
        <ele>-1.79</ele>
        <time>2019-05-30T09:00:40Z</time>
      </trkpt>
      <trkpt lat="43.09689" lon="5.94675">
        <ele>-0.34</ele>
        <time>2019-05-30T09:00:56Z</time>
      </trkpt>
      <trkpt lat="43.09682" lon="5.94686">
        <ele>-0.82</ele>
        <time>2019-05-30T09:01:17Z</time>
      </trkpt>
      <trkpt lat="43.09677" lon="5.94695">
        <ele>-0.82</ele>
        <time>2019-05-30T09:01:33Z</time>
      </trkpt>
      <trkpt lat="43.09671" lon="5.94706">
        <ele>-1.79</ele>
        <time>2019-05-30T09:01:49Z</time>
      </trkpt>
      <trkpt lat="43.09663" lon="5.94719">
        <ele>-1.79</ele>
        <time>2019-05-30T09:02:06Z</time>
      </trkpt>
      <trkpt lat="43.09658" lon="5.94728">
        <ele>-2.27</ele>
        <time>2019-05-30T09:02:18Z</time>
      </trkpt>
      <trkpt lat="43.09652" lon="5.94738">
        <ele>-1.79</ele>
        <time>2019-05-30T09:02:30Z</time>
      </trkpt>
      <trkpt lat="43.09646" lon="5.94747">
        <ele>-0.82</ele>
        <time>2019-05-30T09:02:42Z</time>
      </trkpt>
      <trkpt lat="43.09639" lon="5.94759">
        <ele>-0.82</ele>
        <time>2019-05-30T09:02:55Z</time>
      </trkpt>
      <trkpt lat="43.09633" lon="5.94771">
        <ele>-1.3</ele>
        <time>2019-05-30T09:03:07Z</time>
      </trkpt>
      <trkpt lat="43.09632" lon="5.94773">
        <ele>-1.3</ele>
        <time>2019-05-30T09:03:10Z</time>
      </trkpt>
      <trkpt lat="43.09624" lon="5.94786">
        <ele>-1.79</ele>
        <time>2019-05-30T09:03:24Z</time>
      </trkpt>
      <trkpt lat="43.09616" lon="5.94801">
        <ele>-0.82</ele>
        <time>2019-05-30T09:03:39Z</time>
      </trkpt>
      <trkpt lat="43.09606" lon="5.94818">
        <ele>-0.82</ele>
        <time>2019-05-30T09:03:55Z</time>
      </trkpt>
      <trkpt lat="43.09597" lon="5.94832">
        <ele>-1.3</ele>
        <time>2019-05-30T09:04:08Z</time>
      </trkpt>
      <trkpt lat="43.09591" lon="5.9484">
        <ele>-1.3</ele>
        <time>2019-05-30T09:04:16Z</time>
      </trkpt>
      <trkpt lat="43.09577" lon="5.94857">
        <ele>-1.79</ele>
        <time>2019-05-30T09:04:33Z</time>
      </trkpt>
      <trkpt lat="43.09571" lon="5.94867">
        <ele>-0.34</ele>
        <time>2019-05-30T09:04:41Z</time>
      </trkpt>
      <trkpt lat="43.09565" lon="5.94876">
        <ele>-0.34</ele>
        <time>2019-05-30T09:04:48Z</time>
      </trkpt>
      <trkpt lat="43.09552" lon="5.94897">
        <ele>0.14</ele>
        <time>2019-05-30T09:05:04Z</time>
      </trkpt>
      <trkpt lat="43.09534" lon="5.94929">
        <ele>-0.82</ele>
        <time>2019-05-30T09:05:25Z</time>
      </trkpt>
      <trkpt lat="43.09521" lon="5.9495">
        <ele>-0.34</ele>
        <time>2019-05-30T09:05:39Z</time>
      </trkpt>
      <trkpt lat="43.0951" lon="5.94968">
        <ele>-0.34</ele>
        <time>2019-05-30T09:05:51Z</time>
      </trkpt>
      <trkpt lat="43.09495" lon="5.94994">
        <ele>-1.3</ele>
        <time>2019-05-30T09:06:07Z</time>
      </trkpt>
      <trkpt lat="43.09482" lon="5.95019">
        <ele>-1.79</ele>
        <time>2019-05-30T09:06:20Z</time>
      </trkpt>
      <trkpt lat="43.09465" lon="5.95049">
        <ele>-0.34</ele>
        <time>2019-05-30T09:06:37Z</time>
      </trkpt>
      <trkpt lat="43.0945" lon="5.95075">
        <ele>-0.34</ele>
        <time>2019-05-30T09:06:54Z</time>
      </trkpt>
      <trkpt lat="43.0944" lon="5.95096">
        <ele>0.62</ele>
        <time>2019-05-30T09:07:08Z</time>
      </trkpt>
      <trkpt lat="43.09434" lon="5.95111">
        <ele>-1.3</ele>
        <time>2019-05-30T09:07:17Z</time>
      </trkpt>
      <trkpt lat="43.0943" lon="5.95122">
        <ele>-1.79</ele>
        <time>2019-05-30T09:07:22Z</time>
      </trkpt>
      <trkpt lat="43.09424" lon="5.95133">
        <ele>-1.79</ele>
        <time>2019-05-30T09:07:30Z</time>
      </trkpt>
      <trkpt lat="43.09418" lon="5.95147">
        <ele>-1.79</ele>
        <time>2019-05-30T09:07:38Z</time>
      </trkpt>
      <trkpt lat="43.09403" lon="5.9518">
        <ele>-1.79</ele>
        <time>2019-05-30T09:07:59Z</time>
      </trkpt>
      <trkpt lat="43.0939" lon="5.9521">
        <ele>-3.23</ele>
        <time>2019-05-30T09:08:16Z</time>
      </trkpt>
      <trkpt lat="43.09381" lon="5.95228">
        <ele>-2.27</ele>
        <time>2019-05-30T09:08:30Z</time>
      </trkpt>
      <trkpt lat="43.09371" lon="5.95246">
        <ele>-1.79</ele>
        <time>2019-05-30T09:08:46Z</time>
      </trkpt>
      <trkpt lat="43.09368" lon="5.9525">
        <ele>-1.3</ele>
        <time>2019-05-30T09:08:51Z</time>
      </trkpt>
      <trkpt lat="43.09365" lon="5.95258">
        <ele>-0.34</ele>
        <time>2019-05-30T09:08:58Z</time>
      </trkpt>
      <trkpt lat="43.09358" lon="5.95272">
        <ele>-0.82</ele>
        <time>2019-05-30T09:09:12Z</time>
      </trkpt>
      <trkpt lat="43.09357" lon="5.95278">
        <ele>-0.82</ele>
        <time>2019-05-30T09:09:21Z</time>
      </trkpt>
      <trkpt lat="43.09355" lon="5.95293">
        <ele>-0.82</ele>
        <time>2019-05-30T09:09:35Z</time>
      </trkpt>
      <trkpt lat="43.09347" lon="5.95303">
        <ele>-1.3</ele>
        <time>2019-05-30T09:09:48Z</time>
      </trkpt>
      <trkpt lat="43.09342" lon="5.95315">
        <ele>-1.79</ele>
        <time>2019-05-30T09:10:05Z</time>
      </trkpt>
      <trkpt lat="43.09339" lon="5.95325">
        <ele>-0.82</ele>
        <time>2019-05-30T09:10:22Z</time>
      </trkpt>
      <trkpt lat="43.09338" lon="5.95332">
        <ele>-0.82</ele>
        <time>2019-05-30T09:10:37Z</time>
      </trkpt>
      <trkpt lat="43.09337" lon="5.95336">
        <ele>-0.82</ele>
        <time>2019-05-30T09:10:49Z</time>
      </trkpt>
      <trkpt lat="43.09333" lon="5.95343">
        <ele>0.62</ele>
        <time>2019-05-30T09:11:06Z</time>
      </trkpt>
      <trkpt lat="43.09332" lon="5.95352">
        <ele>-0.82</ele>
        <time>2019-05-30T09:11:18Z</time>
      </trkpt>
      <trkpt lat="43.0933" lon="5.9536">
        <ele>-1.79</ele>
        <time>2019-05-30T09:11:36Z</time>
      </trkpt>
      <trkpt lat="43.09328" lon="5.95365">
        <ele>-1.3</ele>
        <time>2019-05-30T09:11:51Z</time>
      </trkpt>
      <trkpt lat="43.09325" lon="5.95372">
        <ele>0.62</ele>
        <time>2019-05-30T09:12:06Z</time>
      </trkpt>
      <trkpt lat="43.09324" lon="5.95376">
        <ele>0.62</ele>
        <time>2019-05-30T09:12:22Z</time>
      </trkpt>
      <trkpt lat="43.09322" lon="5.95384">
        <ele>-0.82</ele>
        <time>2019-05-30T09:12:36Z</time>
      </trkpt>
      <trkpt lat="43.09322" lon="5.95386">
        <ele>-1.3</ele>
        <time>2019-05-30T09:12:51Z</time>
      </trkpt>
      <trkpt lat="43.0932" lon="5.95395">
        <ele>-2.27</ele>
        <time>2019-05-30T09:13:11Z</time>
      </trkpt>
      <trkpt lat="43.09315" lon="5.95408">
        <ele>-0.82</ele>
        <time>2019-05-30T09:13:31Z</time>
      </trkpt>
      <trkpt lat="43.09308" lon="5.95422">
        <ele>-1.79</ele>
        <time>2019-05-30T09:13:49Z</time>
      </trkpt>
      <trkpt lat="43.09302" lon="5.95435">
        <ele>-0.82</ele>
        <time>2019-05-30T09:14:04Z</time>
      </trkpt>
      <trkpt lat="43.09297" lon="5.95443">
        <ele>-0.82</ele>
        <time>2019-05-30T09:14:13Z</time>
      </trkpt>
      <trkpt lat="43.09289" lon="5.95462">
        <ele>-1.3</ele>
        <time>2019-05-30T09:14:30Z</time>
      </trkpt>
      <trkpt lat="43.09277" lon="5.95485">
        <ele>-1.79</ele>
        <time>2019-05-30T09:14:48Z</time>
      </trkpt>
      <trkpt lat="43.09264" lon="5.95508">
        <ele>-1.79</ele>
        <time>2019-05-30T09:15:07Z</time>
      </trkpt>
      <trkpt lat="43.09247" lon="5.9554">
        <ele>-2.75</ele>
        <time>2019-05-30T09:15:30Z</time>
      </trkpt>
      <trkpt lat="43.09237" lon="5.95561">
        <ele>-1.79</ele>
        <time>2019-05-30T09:15:47Z</time>
      </trkpt>
      <trkpt lat="43.09227" lon="5.9558">
        <ele>0.62</ele>
        <time>2019-05-30T09:16:02Z</time>
      </trkpt>
      <trkpt lat="43.0922" lon="5.956">
        <ele>0.62</ele>
        <time>2019-05-30T09:16:17Z</time>
      </trkpt>
      <trkpt lat="43.09214" lon="5.95611">
        <ele>-0.34</ele>
        <time>2019-05-30T09:16:25Z</time>
      </trkpt>
      <trkpt lat="43.09211" lon="5.95618">
        <ele>-0.82</ele>
        <time>2019-05-30T09:16:32Z</time>
      </trkpt>
      <trkpt lat="43.09209" lon="5.95621">
        <ele>-2.27</ele>
        <time>2019-05-30T09:16:35Z</time>
      </trkpt>
      <trkpt lat="43.09208" lon="5.95625">
        <ele>-2.27</ele>
        <time>2019-05-30T09:16:38Z</time>
      </trkpt>
      <trkpt lat="43.09199" lon="5.95645">
        <ele>-1.79</ele>
        <time>2019-05-30T09:16:52Z</time>
      </trkpt>
      <trkpt lat="43.09195" lon="5.95653">
        <ele>-2.27</ele>
        <time>2019-05-30T09:16:58Z</time>
      </trkpt>
      <trkpt lat="43.09192" lon="5.9566">
        <ele>-2.27</ele>
        <time>2019-05-30T09:17:02Z</time>
      </trkpt>
      <trkpt lat="43.09182" lon="5.95684">
        <ele>-1.3</ele>
        <time>2019-05-30T09:17:18Z</time>
      </trkpt>
      <trkpt lat="43.09173" lon="5.95706">
        <ele>-1.79</ele>
        <time>2019-05-30T09:17:31Z</time>
      </trkpt>
      <trkpt lat="43.09162" lon="5.95726">
        <ele>-1.3</ele>
        <time>2019-05-30T09:17:43Z</time>
      </trkpt>
      <trkpt lat="43.09157" lon="5.95735">
        <ele>-0.82</ele>
        <time>2019-05-30T09:17:48Z</time>
      </trkpt>
      <trkpt lat="43.09144" lon="5.95761">
        <ele>-1.3</ele>
        <time>2019-05-30T09:18:03Z</time>
      </trkpt>
      <trkpt lat="43.09126" lon="5.95791">
        <ele>1.1</ele>
        <time>2019-05-30T09:18:22Z</time>
      </trkpt>
      <trkpt lat="43.09109" lon="5.95817">
        <ele>-0.34</ele>
        <time>2019-05-30T09:18:38Z</time>
      </trkpt>
      <trkpt lat="43.09103" lon="5.95828">
        <ele>-0.34</ele>
        <time>2019-05-30T09:18:44Z</time>
      </trkpt>
      <trkpt lat="43.09099" lon="5.95835">
        <ele>-0.82</ele>
        <time>2019-05-30T09:18:48Z</time>
      </trkpt>
      <trkpt lat="43.09089" lon="5.95856">
        <ele>-1.79</ele>
        <time>2019-05-30T09:19:01Z</time>
      </trkpt>
      <trkpt lat="43.09068" lon="5.95892">
        <ele>6.87</ele>
        <time>2019-05-30T09:19:21Z</time>
      </trkpt>
      <trkpt lat="43.09062" lon="5.95901">
        <ele>5.91</ele>
        <time>2019-05-30T09:19:26Z</time>
      </trkpt>
      <trkpt lat="43.09054" lon="5.95914">
        <ele>3.02</ele>
        <time>2019-05-30T09:19:33Z</time>
      </trkpt>
      <trkpt lat="43.09049" lon="5.95921">
        <ele>2.06</ele>
        <time>2019-05-30T09:19:37Z</time>
      </trkpt>
      <trkpt lat="43.09026" lon="5.95938">
        <ele>0.62</ele>
        <time>2019-05-30T09:19:52Z</time>
      </trkpt>
      <trkpt lat="43.09018" lon="5.95942">
        <ele>-0.34</ele>
        <time>2019-05-30T09:19:57Z</time>
      </trkpt>
      <trkpt lat="43.09009" lon="5.95945">
        <ele>-0.82</ele>
        <time>2019-05-30T09:20:01Z</time>
      </trkpt>
      <trkpt lat="43.08989" lon="5.95953">
        <ele>-0.34</ele>
        <time>2019-05-30T09:20:13Z</time>
      </trkpt>
      <trkpt lat="43.08983" lon="5.95955">
        <ele>-0.34</ele>
        <time>2019-05-30T09:20:18Z</time>
      </trkpt>
      <trkpt lat="43.08979" lon="5.95958">
        <ele>-0.82</ele>
        <time>2019-05-30T09:20:22Z</time>
      </trkpt>
      <trkpt lat="43.08969" lon="5.95963">
        <ele>-2.27</ele>
        <time>2019-05-30T09:20:31Z</time>
      </trkpt>
      <trkpt lat="43.08966" lon="5.95963">
        <ele>-2.75</ele>
        <time>2019-05-30T09:20:34Z</time>
      </trkpt>
      <trkpt lat="43.0895" lon="5.95967">
        <ele>-4.67</ele>
        <time>2019-05-30T09:20:48Z</time>
      </trkpt>
      <trkpt lat="43.08945" lon="5.95969">
        <ele>-4.19</ele>
        <time>2019-05-30T09:20:52Z</time>
      </trkpt>
      <trkpt lat="43.08939" lon="5.95971">
        <ele>-4.19</ele>
        <time>2019-05-30T09:20:57Z</time>
      </trkpt>
      <trkpt lat="43.08922" lon="5.95978">
        <ele>-4.67</ele>
        <time>2019-05-30T09:21:11Z</time>
      </trkpt>
      <trkpt lat="43.08904" lon="5.95985">
        <ele>-2.75</ele>
        <time>2019-05-30T09:21:26Z</time>
      </trkpt>
      <trkpt lat="43.08889" lon="5.9599">
        <ele>-2.75</ele>
        <time>2019-05-30T09:21:37Z</time>
      </trkpt>
      <trkpt lat="43.08883" lon="5.95993">
        <ele>-2.27</ele>
        <time>2019-05-30T09:21:42Z</time>
      </trkpt>
      <trkpt lat="43.08879" lon="5.95994">
        <ele>-2.27</ele>
        <time>2019-05-30T09:21:46Z</time>
      </trkpt>
      <trkpt lat="43.0886" lon="5.96002">
        <ele>-0.34</ele>
        <time>2019-05-30T09:22:01Z</time>
      </trkpt>
      <trkpt lat="43.08845" lon="5.9601">
        <ele>-0.82</ele>
        <time>2019-05-30T09:22:14Z</time>
      </trkpt>
      <trkpt lat="43.08821" lon="5.96021">
        <ele>1.1</ele>
        <time>2019-05-30T09:22:34Z</time>
      </trkpt>
      <trkpt lat="43.08795" lon="5.96034">
        <ele>-0.34</ele>
        <time>2019-05-30T09:22:56Z</time>
      </trkpt>
      <trkpt lat="43.08775" lon="5.96049">
        <ele>-2.27</ele>
        <time>2019-05-30T09:23:18Z</time>
      </trkpt>
      <trkpt lat="43.08758" lon="5.96061">
        <ele>-1.3</ele>
        <time>2019-05-30T09:23:39Z</time>
      </trkpt>
      <trkpt lat="43.08758" lon="5.96062">
        <ele>-1.3</ele>
        <time>2019-05-30T09:23:40Z</time>
      </trkpt>
      <trkpt lat="43.08739" lon="5.96081">
        <ele>-1.3</ele>
        <time>2019-05-30T09:23:59Z</time>
      </trkpt>
      <trkpt lat="43.08714" lon="5.96101">
        <ele>0.62</ele>
        <time>2019-05-30T09:24:19Z</time>
      </trkpt>
      <trkpt lat="43.08688" lon="5.96123">
        <ele>0.62</ele>
        <time>2019-05-30T09:24:40Z</time>
      </trkpt>
      <trkpt lat="43.08665" lon="5.96143">
        <ele>1.1</ele>
        <time>2019-05-30T09:24:58Z</time>
      </trkpt>
      <trkpt lat="43.08644" lon="5.96163">
        <ele>1.1</ele>
        <time>2019-05-30T09:25:14Z</time>
      </trkpt>
      <trkpt lat="43.08615" lon="5.96186">
        <ele>-0.34</ele>
        <time>2019-05-30T09:25:33Z</time>
      </trkpt>
      <trkpt lat="43.0859" lon="5.96207">
        <ele>-1.3</ele>
        <time>2019-05-30T09:25:49Z</time>
      </trkpt>
      <trkpt lat="43.08556" lon="5.96231">
        <ele>-1.3</ele>
        <time>2019-05-30T09:26:09Z</time>
      </trkpt>
      <trkpt lat="43.08528" lon="5.96251">
        <ele>-0.34</ele>
        <time>2019-05-30T09:26:25Z</time>
      </trkpt>
      <trkpt lat="43.08505" lon="5.96267">
        <ele>0.14</ele>
        <time>2019-05-30T09:26:39Z</time>
      </trkpt>
      <trkpt lat="43.08475" lon="5.96289">
        <ele>-4.67</ele>
        <time>2019-05-30T09:26:57Z</time>
      </trkpt>
      <trkpt lat="43.08445" lon="5.96308">
        <ele>-7.55</ele>
        <time>2019-05-30T09:27:15Z</time>
      </trkpt>
      <trkpt lat="43.08414" lon="5.96328">
        <ele>-5.63</ele>
        <time>2019-05-30T09:27:35Z</time>
      </trkpt>
      <trkpt lat="43.08384" lon="5.96347">
        <ele>-2.75</ele>
        <time>2019-05-30T09:27:52Z</time>
      </trkpt>
      <trkpt lat="43.08354" lon="5.96367">
        <ele>-1.79</ele>
        <time>2019-05-30T09:28:09Z</time>
      </trkpt>
      <trkpt lat="43.0832" lon="5.96387">
        <ele>-1.79</ele>
        <time>2019-05-30T09:28:28Z</time>
      </trkpt>
      <trkpt lat="43.08298" lon="5.96399">
        <ele>-1.3</ele>
        <time>2019-05-30T09:28:43Z</time>
      </trkpt>
      <trkpt lat="43.08274" lon="5.96415">
        <ele>-2.75</ele>
        <time>2019-05-30T09:29:00Z</time>
      </trkpt>
      <trkpt lat="43.08255" lon="5.96424">
        <ele>-1.3</ele>
        <time>2019-05-30T09:29:14Z</time>
      </trkpt>
      <trkpt lat="43.08245" lon="5.96429">
        <ele>-2.27</ele>
        <time>2019-05-30T09:29:22Z</time>
      </trkpt>
      <trkpt lat="43.08223" lon="5.96446">
        <ele>-0.34</ele>
        <time>2019-05-30T09:29:40Z</time>
      </trkpt>
      <trkpt lat="43.082" lon="5.96464">
        <ele>-0.34</ele>
        <time>2019-05-30T09:29:57Z</time>
      </trkpt>
      <trkpt lat="43.08177" lon="5.96468">
        <ele>-0.34</ele>
        <time>2019-05-30T09:30:14Z</time>
      </trkpt>
      <trkpt lat="43.08182" lon="5.96442">
        <ele>-1.3</ele>
        <time>2019-05-30T09:30:29Z</time>
      </trkpt>
      <trkpt lat="43.08189" lon="5.96403">
        <ele>0.14</ele>
        <time>2019-05-30T09:30:44Z</time>
      </trkpt>
      <trkpt lat="43.08196" lon="5.96358">
        <ele>-2.75</ele>
        <time>2019-05-30T09:30:58Z</time>
      </trkpt>
      <trkpt lat="43.08204" lon="5.96307">
        <ele>-2.75</ele>
        <time>2019-05-30T09:31:13Z</time>
      </trkpt>
      <trkpt lat="43.08211" lon="5.9625">
        <ele>-2.75</ele>
        <time>2019-05-30T09:31:29Z</time>
      </trkpt>
      <trkpt lat="43.08214" lon="5.96196">
        <ele>-3.23</ele>
        <time>2019-05-30T09:31:43Z</time>
      </trkpt>
      <trkpt lat="43.08217" lon="5.9613">
        <ele>-1.79</ele>
        <time>2019-05-30T09:31:59Z</time>
      </trkpt>
      <trkpt lat="43.08221" lon="5.96061">
        <ele>-1.79</ele>
        <time>2019-05-30T09:32:16Z</time>
      </trkpt>
      <trkpt lat="43.08224" lon="5.95998">
        <ele>-2.75</ele>
        <time>2019-05-30T09:32:32Z</time>
      </trkpt>
      <trkpt lat="43.08225" lon="5.9595">
        <ele>-2.75</ele>
        <time>2019-05-30T09:32:44Z</time>
      </trkpt>
      <trkpt lat="43.08225" lon="5.95874">
        <ele>-2.27</ele>
        <time>2019-05-30T09:33:03Z</time>
      </trkpt>
      <trkpt lat="43.08223" lon="5.95812">
        <ele>-2.75</ele>
        <time>2019-05-30T09:33:19Z</time>
      </trkpt>
      <trkpt lat="43.08219" lon="5.95767">
        <ele>-2.27</ele>
        <time>2019-05-30T09:33:31Z</time>
      </trkpt>
      <trkpt lat="43.08201" lon="5.95774">
        <ele>-1.79</ele>
        <time>2019-05-30T09:33:43Z</time>
      </trkpt>
      <trkpt lat="43.08195" lon="5.9578">
        <ele>-1.3</ele>
        <time>2019-05-30T09:33:48Z</time>
      </trkpt>
      <trkpt lat="43.08181" lon="5.95791">
        <ele>-2.27</ele>
        <time>2019-05-30T09:33:59Z</time>
      </trkpt>
      <trkpt lat="43.08171" lon="5.95802">
        <ele>-1.3</ele>
        <time>2019-05-30T09:34:08Z</time>
      </trkpt>
      <trkpt lat="43.08143" lon="5.95834">
        <ele>-2.27</ele>
        <time>2019-05-30T09:34:28Z</time>
      </trkpt>
      <trkpt lat="43.08117" lon="5.95858">
        <ele>-1.3</ele>
        <time>2019-05-30T09:34:44Z</time>
      </trkpt>
      <trkpt lat="43.08088" lon="5.95886">
        <ele>-3.71</ele>
        <time>2019-05-30T09:35:01Z</time>
      </trkpt>
      <trkpt lat="43.08053" lon="5.9591">
        <ele>-4.19</ele>
        <time>2019-05-30T09:35:19Z</time>
      </trkpt>
      <trkpt lat="43.08016" lon="5.95934">
        <ele>-4.19</ele>
        <time>2019-05-30T09:35:39Z</time>
      </trkpt>
      <trkpt lat="43.07986" lon="5.95953">
        <ele>-2.27</ele>
        <time>2019-05-30T09:35:56Z</time>
      </trkpt>
      <trkpt lat="43.07956" lon="5.9597">
        <ele>-1.79</ele>
        <time>2019-05-30T09:36:13Z</time>
      </trkpt>
      <trkpt lat="43.0792" lon="5.95988">
        <ele>-0.82</ele>
        <time>2019-05-30T09:36:32Z</time>
      </trkpt>
      <trkpt lat="43.07894" lon="5.96">
        <ele>0.14</ele>
        <time>2019-05-30T09:36:46Z</time>
      </trkpt>
      <trkpt lat="43.07863" lon="5.96016">
        <ele>-2.27</ele>
        <time>2019-05-30T09:37:03Z</time>
      </trkpt>
      <trkpt lat="43.07826" lon="5.96035">
        <ele>-4.19</ele>
        <time>2019-05-30T09:37:24Z</time>
      </trkpt>
      <trkpt lat="43.07792" lon="5.96061">
        <ele>-5.15</ele>
        <time>2019-05-30T09:37:44Z</time>
      </trkpt>
      <trkpt lat="43.07766" lon="5.96084">
        <ele>-4.19</ele>
        <time>2019-05-30T09:37:59Z</time>
      </trkpt>
      <trkpt lat="43.07735" lon="5.96109">
        <ele>-4.19</ele>
        <time>2019-05-30T09:38:16Z</time>
      </trkpt>
      <trkpt lat="43.07697" lon="5.96137">
        <ele>-3.71</ele>
        <time>2019-05-30T09:38:36Z</time>
      </trkpt>
      <trkpt lat="43.07667" lon="5.9616">
        <ele>-3.71</ele>
        <time>2019-05-30T09:38:53Z</time>
      </trkpt>
      <trkpt lat="43.07642" lon="5.96181">
        <ele>-2.75</ele>
        <time>2019-05-30T09:39:07Z</time>
      </trkpt>
      <trkpt lat="43.07611" lon="5.96201">
        <ele>-3.71</ele>
        <time>2019-05-30T09:39:23Z</time>
      </trkpt>
      <trkpt lat="43.0758" lon="5.96227">
        <ele>-2.27</ele>
        <time>2019-05-30T09:39:40Z</time>
      </trkpt>
      <trkpt lat="43.07548" lon="5.9625">
        <ele>-2.75</ele>
        <time>2019-05-30T09:39:56Z</time>
      </trkpt>
      <trkpt lat="43.07518" lon="5.96268">
        <ele>-2.75</ele>
        <time>2019-05-30T09:40:10Z</time>
      </trkpt>
      <trkpt lat="43.07512" lon="5.96243">
        <ele>-2.75</ele>
        <time>2019-05-30T09:40:22Z</time>
      </trkpt>
      <trkpt lat="43.07512" lon="5.96235">
        <ele>-2.75</ele>
        <time>2019-05-30T09:40:26Z</time>
      </trkpt>
      <trkpt lat="43.07514" lon="5.96206">
        <ele>-2.75</ele>
        <time>2019-05-30T09:40:38Z</time>
      </trkpt>
      <trkpt lat="43.07515" lon="5.96174">
        <ele>-1.3</ele>
        <time>2019-05-30T09:40:50Z</time>
      </trkpt>
      <trkpt lat="43.07518" lon="5.96153">
        <ele>-0.34</ele>
        <time>2019-05-30T09:40:57Z</time>
      </trkpt>
      <trkpt lat="43.07519" lon="5.96141">
        <ele>-2.27</ele>
        <time>2019-05-30T09:41:01Z</time>
      </trkpt>
      <trkpt lat="43.07526" lon="5.96092">
        <ele>-2.27</ele>
        <time>2019-05-30T09:41:17Z</time>
      </trkpt>
      <trkpt lat="43.07529" lon="5.96073">
        <ele>-3.23</ele>
        <time>2019-05-30T09:41:23Z</time>
      </trkpt>
      <trkpt lat="43.07532" lon="5.96052">
        <ele>-7.07</ele>
        <time>2019-05-30T09:41:30Z</time>
      </trkpt>
      <trkpt lat="43.0754" lon="5.96013">
        <ele>-6.59</ele>
        <time>2019-05-30T09:41:43Z</time>
      </trkpt>
      <trkpt lat="43.07552" lon="5.9596">
        <ele>-4.19</ele>
        <time>2019-05-30T09:42:00Z</time>
      </trkpt>
      <trkpt lat="43.07558" lon="5.95923">
        <ele>-3.71</ele>
        <time>2019-05-30T09:42:12Z</time>
      </trkpt>
      <trkpt lat="43.07565" lon="5.95882">
        <ele>-3.71</ele>
        <time>2019-05-30T09:42:25Z</time>
      </trkpt>
      <trkpt lat="43.07573" lon="5.95846">
        <ele>-4.19</ele>
        <time>2019-05-30T09:42:36Z</time>
      </trkpt>
      <trkpt lat="43.07584" lon="5.958">
        <ele>-2.75</ele>
        <time>2019-05-30T09:42:52Z</time>
      </trkpt>
      <trkpt lat="43.07594" lon="5.95747">
        <ele>-2.27</ele>
        <time>2019-05-30T09:43:10Z</time>
      </trkpt>
      <trkpt lat="43.07599" lon="5.95695">
        <ele>-2.27</ele>
        <time>2019-05-30T09:43:27Z</time>
      </trkpt>
      <trkpt lat="43.07606" lon="5.95635">
        <ele>-3.23</ele>
        <time>2019-05-30T09:43:46Z</time>
      </trkpt>
      <trkpt lat="43.07613" lon="5.95573">
        <ele>-4.67</ele>
        <time>2019-05-30T09:44:06Z</time>
      </trkpt>
      <trkpt lat="43.07621" lon="5.95517">
        <ele>-4.67</ele>
        <time>2019-05-30T09:44:25Z</time>
      </trkpt>
      <trkpt lat="43.07613" lon="5.955">
        <ele>-3.71</ele>
        <time>2019-05-30T09:44:35Z</time>
      </trkpt>
      <trkpt lat="43.07595" lon="5.95509">
        <ele>-3.71</ele>
        <time>2019-05-30T09:44:50Z</time>
      </trkpt>
      <trkpt lat="43.07579" lon="5.95519">
        <ele>-2.27</ele>
        <time>2019-05-30T09:45:02Z</time>
      </trkpt>
      <trkpt lat="43.0757" lon="5.95526">
        <ele>-4.19</ele>
        <time>2019-05-30T09:45:11Z</time>
      </trkpt>
      <trkpt lat="43.07555" lon="5.95537">
        <ele>-3.71</ele>
        <time>2019-05-30T09:45:22Z</time>
      </trkpt>
      <trkpt lat="43.0755" lon="5.9554">
        <ele>-2.27</ele>
        <time>2019-05-30T09:45:26Z</time>
      </trkpt>
      <trkpt lat="43.07529" lon="5.95555">
        <ele>-3.23</ele>
        <time>2019-05-30T09:45:43Z</time>
      </trkpt>
      <trkpt lat="43.07508" lon="5.95573">
        <ele>-3.71</ele>
        <time>2019-05-30T09:45:59Z</time>
      </trkpt>
      <trkpt lat="43.0749" lon="5.9559">
        <ele>-4.19</ele>
        <time>2019-05-30T09:46:12Z</time>
      </trkpt>
      <trkpt lat="43.0747" lon="5.95609">
        <ele>-2.27</ele>
        <time>2019-05-30T09:46:25Z</time>
      </trkpt>
      <trkpt lat="43.07446" lon="5.95631">
        <ele>-2.75</ele>
        <time>2019-05-30T09:46:40Z</time>
      </trkpt>
      <trkpt lat="43.0742" lon="5.95653">
        <ele>-1.79</ele>
        <time>2019-05-30T09:46:56Z</time>
      </trkpt>
      <trkpt lat="43.07398" lon="5.95673">
        <ele>-1.3</ele>
        <time>2019-05-30T09:47:10Z</time>
      </trkpt>
      <trkpt lat="43.07366" lon="5.957">
        <ele>-0.34</ele>
        <time>2019-05-30T09:47:29Z</time>
      </trkpt>
      <trkpt lat="43.0734" lon="5.95717">
        <ele>-4.19</ele>
        <time>2019-05-30T09:47:43Z</time>
      </trkpt>
      <trkpt lat="43.07333" lon="5.95723">
        <ele>-5.15</ele>
        <time>2019-05-30T09:47:48Z</time>
      </trkpt>
      <trkpt lat="43.07316" lon="5.95737">
        <ele>-5.15</ele>
        <time>2019-05-30T09:47:59Z</time>
      </trkpt>
      <trkpt lat="43.07302" lon="5.95753">
        <ele>-3.23</ele>
        <time>2019-05-30T09:48:09Z</time>
      </trkpt>
      <trkpt lat="43.07274" lon="5.95774">
        <ele>-2.75</ele>
        <time>2019-05-30T09:48:25Z</time>
      </trkpt>
      <trkpt lat="43.07246" lon="5.95797">
        <ele>-5.63</ele>
        <time>2019-05-30T09:48:41Z</time>
      </trkpt>
      <trkpt lat="43.07218" lon="5.95817">
        <ele>-5.63</ele>
        <time>2019-05-30T09:48:57Z</time>
      </trkpt>
      <trkpt lat="43.07182" lon="5.95843">
        <ele>-5.63</ele>
        <time>2019-05-30T09:49:16Z</time>
      </trkpt>
      <trkpt lat="43.0715" lon="5.95865">
        <ele>-5.15</ele>
        <time>2019-05-30T09:49:32Z</time>
      </trkpt>
      <trkpt lat="43.07119" lon="5.95887">
        <ele>-4.67</ele>
        <time>2019-05-30T09:49:48Z</time>
      </trkpt>
      <trkpt lat="43.07088" lon="5.95911">
        <ele>-1.79</ele>
        <time>2019-05-30T09:50:04Z</time>
      </trkpt>
      <trkpt lat="43.07052" lon="5.95931">
        <ele>-3.23</ele>
        <time>2019-05-30T09:50:21Z</time>
      </trkpt>
      <trkpt lat="43.07017" lon="5.95951">
        <ele>-2.27</ele>
        <time>2019-05-30T09:50:37Z</time>
      </trkpt>
      <trkpt lat="43.06984" lon="5.95966">
        <ele>-2.75</ele>
        <time>2019-05-30T09:50:53Z</time>
      </trkpt>
      <trkpt lat="43.06957" lon="5.95981">
        <ele>-1.3</ele>
        <time>2019-05-30T09:51:07Z</time>
      </trkpt>
      <trkpt lat="43.06918" lon="5.96003">
        <ele>-4.19</ele>
        <time>2019-05-30T09:51:25Z</time>
      </trkpt>
      <trkpt lat="43.0688" lon="5.96022">
        <ele>-5.63</ele>
        <time>2019-05-30T09:51:44Z</time>
      </trkpt>
      <trkpt lat="43.0685" lon="5.96032">
        <ele>-3.71</ele>
        <time>2019-05-30T09:52:00Z</time>
      </trkpt>
      <trkpt lat="43.06837" lon="5.96037">
        <ele>-3.71</ele>
        <time>2019-05-30T09:52:07Z</time>
      </trkpt>
      <trkpt lat="43.06832" lon="5.96027">
        <ele>-3.23</ele>
        <time>2019-05-30T09:52:13Z</time>
      </trkpt>
      <trkpt lat="43.06832" lon="5.96004">
        <ele>-2.75</ele>
        <time>2019-05-30T09:52:25Z</time>
      </trkpt>
      <trkpt lat="43.06835" lon="5.95976">
        <ele>-5.15</ele>
        <time>2019-05-30T09:52:37Z</time>
      </trkpt>
      <trkpt lat="43.0684" lon="5.95942">
        <ele>-4.67</ele>
        <time>2019-05-30T09:52:51Z</time>
      </trkpt>
      <trkpt lat="43.06841" lon="5.95939">
        <ele>-4.67</ele>
        <time>2019-05-30T09:52:52Z</time>
      </trkpt>
      <trkpt lat="43.06845" lon="5.95919">
        <ele>-4.19</ele>
        <time>2019-05-30T09:52:59Z</time>
      </trkpt>
      <trkpt lat="43.06858" lon="5.95876">
        <ele>-4.19</ele>
        <time>2019-05-30T09:53:14Z</time>
      </trkpt>
      <trkpt lat="43.06874" lon="5.95832">
        <ele>-4.19</ele>
        <time>2019-05-30T09:53:29Z</time>
      </trkpt>
      <trkpt lat="43.06887" lon="5.95799">
        <ele>-2.27</ele>
        <time>2019-05-30T09:53:41Z</time>
      </trkpt>
      <trkpt lat="43.06902" lon="5.9576">
        <ele>-2.75</ele>
        <time>2019-05-30T09:53:55Z</time>
      </trkpt>
      <trkpt lat="43.06903" lon="5.95757">
        <ele>-2.75</ele>
        <time>2019-05-30T09:53:56Z</time>
      </trkpt>
      <trkpt lat="43.06913" lon="5.95735">
        <ele>-2.27</ele>
        <time>2019-05-30T09:54:04Z</time>
      </trkpt>
      <trkpt lat="43.06931" lon="5.95694">
        <ele>-1.3</ele>
        <time>2019-05-30T09:54:20Z</time>
      </trkpt>
      <trkpt lat="43.06944" lon="5.95656">
        <ele>-0.82</ele>
        <time>2019-05-30T09:54:34Z</time>
      </trkpt>
      <trkpt lat="43.06958" lon="5.95617">
        <ele>-0.34</ele>
        <time>2019-05-30T09:54:48Z</time>
      </trkpt>
      <trkpt lat="43.06969" lon="5.95583">
        <ele>-1.79</ele>
        <time>2019-05-30T09:55:00Z</time>
      </trkpt>
      <trkpt lat="43.06957" lon="5.95578">
        <ele>-2.75</ele>
        <time>2019-05-30T09:55:08Z</time>
      </trkpt>
      <trkpt lat="43.06947" lon="5.9558">
        <ele>-3.71</ele>
        <time>2019-05-30T09:55:14Z</time>
      </trkpt>
      <trkpt lat="43.0693" lon="5.95581">
        <ele>-5.63</ele>
        <time>2019-05-30T09:55:27Z</time>
      </trkpt>
      <trkpt lat="43.06906" lon="5.95585">
        <ele>-1.79</ele>
        <time>2019-05-30T09:55:43Z</time>
      </trkpt>
      <trkpt lat="43.06882" lon="5.95591">
        <ele>-0.34</ele>
        <time>2019-05-30T09:55:59Z</time>
      </trkpt>
      <trkpt lat="43.0686" lon="5.95595">
        <ele>-5.15</ele>
        <time>2019-05-30T09:56:13Z</time>
      </trkpt>
      <trkpt lat="43.06837" lon="5.95601">
        <ele>-6.11</ele>
        <time>2019-05-30T09:56:28Z</time>
      </trkpt>
      <trkpt lat="43.06829" lon="5.95603">
        <ele>-4.19</ele>
        <time>2019-05-30T09:56:33Z</time>
      </trkpt>
      <trkpt lat="43.0681" lon="5.95609">
        <ele>-5.15</ele>
        <time>2019-05-30T09:56:45Z</time>
      </trkpt>
      <trkpt lat="43.06792" lon="5.95615">
        <ele>-3.71</ele>
        <time>2019-05-30T09:56:56Z</time>
      </trkpt>
      <trkpt lat="43.06781" lon="5.95619">
        <ele>-2.75</ele>
        <time>2019-05-30T09:57:03Z</time>
      </trkpt>
      <trkpt lat="43.06757" lon="5.95624">
        <ele>-2.75</ele>
        <time>2019-05-30T09:57:17Z</time>
      </trkpt>
      <trkpt lat="43.06734" lon="5.9563">
        <ele>-1.79</ele>
        <time>2019-05-30T09:57:31Z</time>
      </trkpt>
      <trkpt lat="43.06729" lon="5.9563">
        <ele>-1.79</ele>
        <time>2019-05-30T09:57:34Z</time>
      </trkpt>
      <trkpt lat="43.06723" lon="5.95631">
        <ele>-2.27</ele>
        <time>2019-05-30T09:57:38Z</time>
      </trkpt>
      <trkpt lat="43.067" lon="5.95634">
        <ele>-1.3</ele>
        <time>2019-05-30T09:57:50Z</time>
      </trkpt>
      <trkpt lat="43.06679" lon="5.9564">
        <ele>-2.27</ele>
        <time>2019-05-30T09:58:04Z</time>
      </trkpt>
      <trkpt lat="43.0666" lon="5.95645">
        <ele>-1.79</ele>
        <time>2019-05-30T09:58:16Z</time>
      </trkpt>
      <trkpt lat="43.06638" lon="5.95654">
        <ele>-2.75</ele>
        <time>2019-05-30T09:58:30Z</time>
      </trkpt>
      <trkpt lat="43.06613" lon="5.95662">
        <ele>-2.27</ele>
        <time>2019-05-30T09:58:44Z</time>
      </trkpt>
      <trkpt lat="43.06587" lon="5.9567">
        <ele>-2.75</ele>
        <time>2019-05-30T09:58:58Z</time>
      </trkpt>
      <trkpt lat="43.06563" lon="5.95681">
        <ele>-3.23</ele>
        <time>2019-05-30T09:59:11Z</time>
      </trkpt>
      <trkpt lat="43.06536" lon="5.95692">
        <ele>-3.23</ele>
        <time>2019-05-30T09:59:26Z</time>
      </trkpt>
      <trkpt lat="43.06511" lon="5.95701">
        <ele>-3.71</ele>
        <time>2019-05-30T09:59:39Z</time>
      </trkpt>
      <trkpt lat="43.06479" lon="5.95713">
        <ele>-3.71</ele>
        <time>2019-05-30T09:59:55Z</time>
      </trkpt>
      <trkpt lat="43.06452" lon="5.95724">
        <ele>-3.71</ele>
        <time>2019-05-30T10:00:10Z</time>
      </trkpt>
      <trkpt lat="43.06436" lon="5.9573">
        <ele>-3.23</ele>
        <time>2019-05-30T10:00:19Z</time>
      </trkpt>
      <trkpt lat="43.06416" lon="5.95736">
        <ele>-4.67</ele>
        <time>2019-05-30T10:00:29Z</time>
      </trkpt>
      <trkpt lat="43.06396" lon="5.95743">
        <ele>-5.15</ele>
        <time>2019-05-30T10:00:40Z</time>
      </trkpt>
      <trkpt lat="43.06377" lon="5.95748">
        <ele>-4.67</ele>
        <time>2019-05-30T10:00:50Z</time>
      </trkpt>
      <trkpt lat="43.06357" lon="5.95755">
        <ele>-5.15</ele>
        <time>2019-05-30T10:01:01Z</time>
      </trkpt>
      <trkpt lat="43.06338" lon="5.95761">
        <ele>-5.15</ele>
        <time>2019-05-30T10:01:12Z</time>
      </trkpt>
      <trkpt lat="43.06315" lon="5.95769">
        <ele>-5.63</ele>
        <time>2019-05-30T10:01:25Z</time>
      </trkpt>
      <trkpt lat="43.06291" lon="5.9578">
        <ele>-6.11</ele>
        <time>2019-05-30T10:01:40Z</time>
      </trkpt>
      <trkpt lat="43.06269" lon="5.95789">
        <ele>-5.63</ele>
        <time>2019-05-30T10:01:52Z</time>
      </trkpt>
      <trkpt lat="43.06258" lon="5.95792">
        <ele>-5.63</ele>
        <time>2019-05-30T10:01:58Z</time>
      </trkpt>
      <trkpt lat="43.06249" lon="5.95796">
        <ele>-5.63</ele>
        <time>2019-05-30T10:02:03Z</time>
      </trkpt>
      <trkpt lat="43.06227" lon="5.95804">
        <ele>-5.15</ele>
        <time>2019-05-30T10:02:15Z</time>
      </trkpt>
      <trkpt lat="43.06209" lon="5.9581">
        <ele>-6.11</ele>
        <time>2019-05-30T10:02:25Z</time>
      </trkpt>
      <trkpt lat="43.06184" lon="5.95816">
        <ele>-6.11</ele>
        <time>2019-05-30T10:02:39Z</time>
      </trkpt>
      <trkpt lat="43.06178" lon="5.95811">
        <ele>-6.11</ele>
        <time>2019-05-30T10:02:44Z</time>
      </trkpt>
      <trkpt lat="43.06175" lon="5.95789">
        <ele>-4.19</ele>
        <time>2019-05-30T10:02:57Z</time>
      </trkpt>
      <trkpt lat="43.06176" lon="5.95767">
        <ele>-4.19</ele>
        <time>2019-05-30T10:03:08Z</time>
      </trkpt>
      <trkpt lat="43.06175" lon="5.95742">
        <ele>-4.19</ele>
        <time>2019-05-30T10:03:20Z</time>
      </trkpt>
      <trkpt lat="43.06173" lon="5.95718">
        <ele>-3.71</ele>
        <time>2019-05-30T10:03:31Z</time>
      </trkpt>
      <trkpt lat="43.0617" lon="5.95691">
        <ele>-3.71</ele>
        <time>2019-05-30T10:03:43Z</time>
      </trkpt>
      <trkpt lat="43.06168" lon="5.95661">
        <ele>-2.75</ele>
        <time>2019-05-30T10:03:56Z</time>
      </trkpt>
      <trkpt lat="43.06165" lon="5.95631">
        <ele>-4.19</ele>
        <time>2019-05-30T10:04:09Z</time>
      </trkpt>
      <trkpt lat="43.06164" lon="5.95603">
        <ele>-4.19</ele>
        <time>2019-05-30T10:04:20Z</time>
      </trkpt>
      <trkpt lat="43.06162" lon="5.95576">
        <ele>-4.19</ele>
        <time>2019-05-30T10:04:30Z</time>
      </trkpt>
      <trkpt lat="43.0616" lon="5.95548">
        <ele>-4.19</ele>
        <time>2019-05-30T10:04:40Z</time>
      </trkpt>
      <trkpt lat="43.06158" lon="5.95519">
        <ele>-4.67</ele>
        <time>2019-05-30T10:04:50Z</time>
      </trkpt>
      <trkpt lat="43.06154" lon="5.95487">
        <ele>-4.67</ele>
        <time>2019-05-30T10:05:01Z</time>
      </trkpt>
      <trkpt lat="43.06151" lon="5.95453">
        <ele>-4.67</ele>
        <time>2019-05-30T10:05:13Z</time>
      </trkpt>
      <trkpt lat="43.06148" lon="5.95422">
        <ele>-3.71</ele>
        <time>2019-05-30T10:05:24Z</time>
      </trkpt>
      <trkpt lat="43.06145" lon="5.95387">
        <ele>-3.23</ele>
        <time>2019-05-30T10:05:36Z</time>
      </trkpt>
      <trkpt lat="43.06142" lon="5.95341">
        <ele>-3.71</ele>
        <time>2019-05-30T10:05:52Z</time>
      </trkpt>
      <trkpt lat="43.06137" lon="5.95312">
        <ele>-3.71</ele>
        <time>2019-05-30T10:06:03Z</time>
      </trkpt>
      <trkpt lat="43.06133" lon="5.95281">
        <ele>-5.15</ele>
        <time>2019-05-30T10:06:14Z</time>
      </trkpt>
      <trkpt lat="43.06129" lon="5.95247">
        <ele>-5.15</ele>
        <time>2019-05-30T10:06:26Z</time>
      </trkpt>
      <trkpt lat="43.06125" lon="5.95209">
        <ele>-5.15</ele>
        <time>2019-05-30T10:06:39Z</time>
      </trkpt>
      <trkpt lat="43.06122" lon="5.95181">
        <ele>-4.67</ele>
        <time>2019-05-30T10:06:49Z</time>
      </trkpt>
      <trkpt lat="43.06118" lon="5.95144">
        <ele>-4.67</ele>
        <time>2019-05-30T10:07:02Z</time>
      </trkpt>
      <trkpt lat="43.06115" lon="5.95115">
        <ele>-3.23</ele>
        <time>2019-05-30T10:07:12Z</time>
      </trkpt>
      <trkpt lat="43.06115" lon="5.95112">
        <ele>-3.23</ele>
        <time>2019-05-30T10:07:13Z</time>
      </trkpt>
      <trkpt lat="43.06113" lon="5.95101">
        <ele>-3.71</ele>
        <time>2019-05-30T10:07:17Z</time>
      </trkpt>
      <trkpt lat="43.0611" lon="5.9507">
        <ele>-2.75</ele>
        <time>2019-05-30T10:07:28Z</time>
      </trkpt>
      <trkpt lat="43.06108" lon="5.95044">
        <ele>-2.75</ele>
        <time>2019-05-30T10:07:37Z</time>
      </trkpt>
      <trkpt lat="43.06107" lon="5.95018">
        <ele>-3.71</ele>
        <time>2019-05-30T10:07:47Z</time>
      </trkpt>
      <trkpt lat="43.06105" lon="5.94987">
        <ele>-4.19</ele>
        <time>2019-05-30T10:07:59Z</time>
      </trkpt>
      <trkpt lat="43.06104" lon="5.94975">
        <ele>-4.19</ele>
        <time>2019-05-30T10:08:03Z</time>
      </trkpt>
      <trkpt lat="43.06102" lon="5.9493">
        <ele>-3.71</ele>
        <time>2019-05-30T10:08:20Z</time>
      </trkpt>
      <trkpt lat="43.061" lon="5.94899">
        <ele>-4.19</ele>
        <time>2019-05-30T10:08:31Z</time>
      </trkpt>
      <trkpt lat="43.06099" lon="5.94866">
        <ele>-5.15</ele>
        <time>2019-05-30T10:08:43Z</time>
      </trkpt>
      <trkpt lat="43.06097" lon="5.94837">
        <ele>-5.63</ele>
        <time>2019-05-30T10:08:53Z</time>
      </trkpt>
      <trkpt lat="43.06095" lon="5.94806">
        <ele>-6.11</ele>
        <time>2019-05-30T10:09:04Z</time>
      </trkpt>
      <trkpt lat="43.06093" lon="5.94769">
        <ele>-5.63</ele>
        <time>2019-05-30T10:09:16Z</time>
      </trkpt>
      <trkpt lat="43.06089" lon="5.94727">
        <ele>-4.67</ele>
        <time>2019-05-30T10:09:29Z</time>
      </trkpt>
      <trkpt lat="43.06087" lon="5.9468">
        <ele>-5.15</ele>
        <time>2019-05-30T10:09:44Z</time>
      </trkpt>
      <trkpt lat="43.06084" lon="5.94649">
        <ele>-6.11</ele>
        <time>2019-05-30T10:09:54Z</time>
      </trkpt>
      <trkpt lat="43.0608" lon="5.94613">
        <ele>-5.63</ele>
        <time>2019-05-30T10:10:05Z</time>
      </trkpt>
      <trkpt lat="43.06076" lon="5.9457">
        <ele>-3.71</ele>
        <time>2019-05-30T10:10:19Z</time>
      </trkpt>
      <trkpt lat="43.06072" lon="5.94536">
        <ele>-4.19</ele>
        <time>2019-05-30T10:10:30Z</time>
      </trkpt>
      <trkpt lat="43.06068" lon="5.94499">
        <ele>-5.63</ele>
        <time>2019-05-30T10:10:42Z</time>
      </trkpt>
      <trkpt lat="43.06062" lon="5.94458">
        <ele>-6.11</ele>
        <time>2019-05-30T10:10:55Z</time>
      </trkpt>
      <trkpt lat="43.06057" lon="5.94415">
        <ele>-4.19</ele>
        <time>2019-05-30T10:11:08Z</time>
      </trkpt>
      <trkpt lat="43.06052" lon="5.94381">
        <ele>-3.23</ele>
        <time>2019-05-30T10:11:18Z</time>
      </trkpt>
      <trkpt lat="43.06048" lon="5.94356">
        <ele>-3.23</ele>
        <time>2019-05-30T10:11:26Z</time>
      </trkpt>
      <trkpt lat="43.06044" lon="5.94317">
        <ele>-2.75</ele>
        <time>2019-05-30T10:11:38Z</time>
      </trkpt>
      <trkpt lat="43.0604" lon="5.94283">
        <ele>-2.27</ele>
        <time>2019-05-30T10:11:49Z</time>
      </trkpt>
      <trkpt lat="43.06035" lon="5.94246">
        <ele>-3.23</ele>
        <time>2019-05-30T10:12:01Z</time>
      </trkpt>
      <trkpt lat="43.06034" lon="5.94236">
        <ele>-3.23</ele>
        <time>2019-05-30T10:12:04Z</time>
      </trkpt>
      <trkpt lat="43.06033" lon="5.94224">
        <ele>-3.23</ele>
        <time>2019-05-30T10:12:08Z</time>
      </trkpt>
      <trkpt lat="43.0603" lon="5.94192">
        <ele>-3.23</ele>
        <time>2019-05-30T10:12:18Z</time>
      </trkpt>
      <trkpt lat="43.06028" lon="5.94177">
        <ele>-2.75</ele>
        <time>2019-05-30T10:12:23Z</time>
      </trkpt>
      <trkpt lat="43.06026" lon="5.94163">
        <ele>-3.23</ele>
        <time>2019-05-30T10:12:28Z</time>
      </trkpt>
      <trkpt lat="43.06024" lon="5.94155">
        <ele>-3.23</ele>
        <time>2019-05-30T10:12:31Z</time>
      </trkpt>
      <trkpt lat="43.06023" lon="5.94145">
        <ele>-3.23</ele>
        <time>2019-05-30T10:12:35Z</time>
      </trkpt>
      <trkpt lat="43.06019" lon="5.94127">
        <ele>-3.23</ele>
        <time>2019-05-30T10:12:42Z</time>
      </trkpt>
      <trkpt lat="43.06015" lon="5.9411">
        <ele>-2.75</ele>
        <time>2019-05-30T10:12:49Z</time>
      </trkpt>
      <trkpt lat="43.0601" lon="5.94069">
        <ele>-2.75</ele>
        <time>2019-05-30T10:13:04Z</time>
      </trkpt>
      <trkpt lat="43.06008" lon="5.94038">
        <ele>-4.19</ele>
        <time>2019-05-30T10:13:15Z</time>
      </trkpt>
      <trkpt lat="43.06005" lon="5.93996">
        <ele>-4.67</ele>
        <time>2019-05-30T10:13:30Z</time>
      </trkpt>
      <trkpt lat="43.06002" lon="5.93951">
        <ele>-5.15</ele>
        <time>2019-05-30T10:13:45Z</time>
      </trkpt>
      <trkpt lat="43.05998" lon="5.93902">
        <ele>-4.19</ele>
        <time>2019-05-30T10:14:01Z</time>
      </trkpt>
      <trkpt lat="43.05994" lon="5.93856">
        <ele>-4.19</ele>
        <time>2019-05-30T10:14:16Z</time>
      </trkpt>
      <trkpt lat="43.05988" lon="5.93807">
        <ele>-3.71</ele>
        <time>2019-05-30T10:14:32Z</time>
      </trkpt>
      <trkpt lat="43.05984" lon="5.93763">
        <ele>-3.23</ele>
        <time>2019-05-30T10:14:46Z</time>
      </trkpt>
      <trkpt lat="43.05981" lon="5.93725">
        <ele>-3.71</ele>
        <time>2019-05-30T10:14:58Z</time>
      </trkpt>
      <trkpt lat="43.05978" lon="5.93689">
        <ele>-4.19</ele>
        <time>2019-05-30T10:15:09Z</time>
      </trkpt>
      <trkpt lat="43.05975" lon="5.93651">
        <ele>-4.67</ele>
        <time>2019-05-30T10:15:21Z</time>
      </trkpt>
      <trkpt lat="43.05973" lon="5.93611">
        <ele>-4.19</ele>
        <time>2019-05-30T10:15:33Z</time>
      </trkpt>
      <trkpt lat="43.05969" lon="5.93572">
        <ele>-5.15</ele>
        <time>2019-05-30T10:15:45Z</time>
      </trkpt>
      <trkpt lat="43.05966" lon="5.93529">
        <ele>-4.67</ele>
        <time>2019-05-30T10:15:59Z</time>
      </trkpt>
      <trkpt lat="43.05962" lon="5.93496">
        <ele>-4.67</ele>
        <time>2019-05-30T10:16:10Z</time>
      </trkpt>
      <trkpt lat="43.05959" lon="5.93455">
        <ele>-4.19</ele>
        <time>2019-05-30T10:16:23Z</time>
      </trkpt>
      <trkpt lat="43.05955" lon="5.93412">
        <ele>-4.67</ele>
        <time>2019-05-30T10:16:37Z</time>
      </trkpt>
      <trkpt lat="43.05953" lon="5.93381">
        <ele>-4.67</ele>
        <time>2019-05-30T10:16:47Z</time>
      </trkpt>
      <trkpt lat="43.0595" lon="5.93343">
        <ele>-4.67</ele>
        <time>2019-05-30T10:16:59Z</time>
      </trkpt>
      <trkpt lat="43.05948" lon="5.933">
        <ele>-5.15</ele>
        <time>2019-05-30T10:17:12Z</time>
      </trkpt>
      <trkpt lat="43.05944" lon="5.93257">
        <ele>-5.63</ele>
        <time>2019-05-30T10:17:26Z</time>
      </trkpt>
      <trkpt lat="43.05941" lon="5.93222">
        <ele>-5.63</ele>
        <time>2019-05-30T10:17:37Z</time>
      </trkpt>
      <trkpt lat="43.05939" lon="5.9319">
        <ele>-5.63</ele>
        <time>2019-05-30T10:17:48Z</time>
      </trkpt>
      <trkpt lat="43.05935" lon="5.93158">
        <ele>-5.15</ele>
        <time>2019-05-30T10:17:59Z</time>
      </trkpt>
      <trkpt lat="43.05935" lon="5.9313">
        <ele>-4.19</ele>
        <time>2019-05-30T10:18:09Z</time>
      </trkpt>
      <trkpt lat="43.05935" lon="5.93105">
        <ele>-4.19</ele>
        <time>2019-05-30T10:18:18Z</time>
      </trkpt>
      <trkpt lat="43.05934" lon="5.93064">
        <ele>-3.71</ele>
        <time>2019-05-30T10:18:32Z</time>
      </trkpt>
      <trkpt lat="43.05933" lon="5.93026">
        <ele>-3.23</ele>
        <time>2019-05-30T10:18:45Z</time>
      </trkpt>
      <trkpt lat="43.0593" lon="5.92979">
        <ele>-4.19</ele>
        <time>2019-05-30T10:19:00Z</time>
      </trkpt>
      <trkpt lat="43.05926" lon="5.9294">
        <ele>-4.19</ele>
        <time>2019-05-30T10:19:13Z</time>
      </trkpt>
      <trkpt lat="43.05923" lon="5.92901">
        <ele>-5.15</ele>
        <time>2019-05-30T10:19:26Z</time>
      </trkpt>
      <trkpt lat="43.05919" lon="5.9286">
        <ele>-5.15</ele>
        <time>2019-05-30T10:19:40Z</time>
      </trkpt>
      <trkpt lat="43.05916" lon="5.92825">
        <ele>-5.15</ele>
        <time>2019-05-30T10:19:52Z</time>
      </trkpt>
      <trkpt lat="43.05913" lon="5.92783">
        <ele>-4.19</ele>
        <time>2019-05-30T10:20:06Z</time>
      </trkpt>
      <trkpt lat="43.0591" lon="5.92742">
        <ele>-4.19</ele>
        <time>2019-05-30T10:20:19Z</time>
      </trkpt>
      <trkpt lat="43.05906" lon="5.92701">
        <ele>-5.15</ele>
        <time>2019-05-30T10:20:33Z</time>
      </trkpt>
      <trkpt lat="43.05901" lon="5.92669">
        <ele>-4.67</ele>
        <time>2019-05-30T10:20:44Z</time>
      </trkpt>
      <trkpt lat="43.05895" lon="5.92632">
        <ele>-4.67</ele>
        <time>2019-05-30T10:20:57Z</time>
      </trkpt>
      <trkpt lat="43.05888" lon="5.92583">
        <ele>-4.19</ele>
        <time>2019-05-30T10:21:14Z</time>
      </trkpt>
      <trkpt lat="43.05882" lon="5.92535">
        <ele>-3.71</ele>
        <time>2019-05-30T10:21:31Z</time>
      </trkpt>
      <trkpt lat="43.05877" lon="5.92492">
        <ele>-3.71</ele>
        <time>2019-05-30T10:21:46Z</time>
      </trkpt>
      <trkpt lat="43.05872" lon="5.92448">
        <ele>-3.71</ele>
        <time>2019-05-30T10:22:00Z</time>
      </trkpt>
      <trkpt lat="43.05866" lon="5.92397">
        <ele>-4.19</ele>
        <time>2019-05-30T10:22:16Z</time>
      </trkpt>
      <trkpt lat="43.05861" lon="5.92346">
        <ele>-3.71</ele>
        <time>2019-05-30T10:22:32Z</time>
      </trkpt>
      <trkpt lat="43.05856" lon="5.92298">
        <ele>-4.19</ele>
        <time>2019-05-30T10:22:47Z</time>
      </trkpt>
      <trkpt lat="43.05854" lon="5.9226">
        <ele>-4.19</ele>
        <time>2019-05-30T10:22:59Z</time>
      </trkpt>
      <trkpt lat="43.05849" lon="5.92222">
        <ele>-3.71</ele>
        <time>2019-05-30T10:23:11Z</time>
      </trkpt>
      <trkpt lat="43.05845" lon="5.92177">
        <ele>-3.71</ele>
        <time>2019-05-30T10:23:26Z</time>
      </trkpt>
      <trkpt lat="43.05843" lon="5.92129">
        <ele>-3.23</ele>
        <time>2019-05-30T10:23:41Z</time>
      </trkpt>
      <trkpt lat="43.05843" lon="5.92072">
        <ele>-4.19</ele>
        <time>2019-05-30T10:23:58Z</time>
      </trkpt>
      <trkpt lat="43.05846" lon="5.92031">
        <ele>-4.19</ele>
        <time>2019-05-30T10:24:10Z</time>
      </trkpt>
      <trkpt lat="43.05853" lon="5.91982">
        <ele>-3.71</ele>
        <time>2019-05-30T10:24:24Z</time>
      </trkpt>
      <trkpt lat="43.05856" lon="5.91929">
        <ele>-4.19</ele>
        <time>2019-05-30T10:24:40Z</time>
      </trkpt>
      <trkpt lat="43.05846" lon="5.91913">
        <ele>-5.15</ele>
        <time>2019-05-30T10:24:50Z</time>
      </trkpt>
      <trkpt lat="43.05842" lon="5.91916">
        <ele>-4.67</ele>
        <time>2019-05-30T10:24:53Z</time>
      </trkpt>
      <trkpt lat="43.05834" lon="5.9192">
        <ele>-4.67</ele>
        <time>2019-05-30T10:24:59Z</time>
      </trkpt>
      <trkpt lat="43.05815" lon="5.91929">
        <ele>-5.63</ele>
        <time>2019-05-30T10:25:13Z</time>
      </trkpt>
      <trkpt lat="43.05787" lon="5.91945">
        <ele>-6.11</ele>
        <time>2019-05-30T10:25:30Z</time>
      </trkpt>
      <trkpt lat="43.05774" lon="5.91953">
        <ele>-5.15</ele>
        <time>2019-05-30T10:25:38Z</time>
      </trkpt>
      <trkpt lat="43.05753" lon="5.91962">
        <ele>-5.63</ele>
        <time>2019-05-30T10:25:50Z</time>
      </trkpt>
      <trkpt lat="43.05726" lon="5.91978">
        <ele>-5.15</ele>
        <time>2019-05-30T10:26:06Z</time>
      </trkpt>
      <trkpt lat="43.05701" lon="5.91996">
        <ele>-5.63</ele>
        <time>2019-05-30T10:26:21Z</time>
      </trkpt>
      <trkpt lat="43.05676" lon="5.92015">
        <ele>-5.15</ele>
        <time>2019-05-30T10:26:34Z</time>
      </trkpt>
      <trkpt lat="43.05648" lon="5.92035">
        <ele>-4.67</ele>
        <time>2019-05-30T10:26:48Z</time>
      </trkpt>
      <trkpt lat="43.0562" lon="5.92063">
        <ele>-4.19</ele>
        <time>2019-05-30T10:27:02Z</time>
      </trkpt>
      <trkpt lat="43.05595" lon="5.92094">
        <ele>-4.19</ele>
        <time>2019-05-30T10:27:15Z</time>
      </trkpt>
      <trkpt lat="43.05591" lon="5.92126">
        <ele>-4.19</ele>
        <time>2019-05-30T10:27:25Z</time>
      </trkpt>
      <trkpt lat="43.05598" lon="5.92165">
        <ele>-5.63</ele>
        <time>2019-05-30T10:27:39Z</time>
      </trkpt>
      <trkpt lat="43.05604" lon="5.92201">
        <ele>-6.59</ele>
        <time>2019-05-30T10:27:55Z</time>
      </trkpt>
      <trkpt lat="43.0561" lon="5.92238">
        <ele>-7.07</ele>
        <time>2019-05-30T10:28:13Z</time>
      </trkpt>
      <trkpt lat="43.0562" lon="5.92266">
        <ele>-8.03</ele>
        <time>2019-05-30T10:28:30Z</time>
      </trkpt>
      <trkpt lat="43.05627" lon="5.92298">
        <ele>-7.07</ele>
        <time>2019-05-30T10:28:49Z</time>
      </trkpt>
      <trkpt lat="43.05636" lon="5.92327">
        <ele>-8.03</ele>
        <time>2019-05-30T10:29:07Z</time>
      </trkpt>
      <trkpt lat="43.05645" lon="5.92357">
        <ele>-8.03</ele>
        <time>2019-05-30T10:29:26Z</time>
      </trkpt>
      <trkpt lat="43.05647" lon="5.92374">
        <ele>-7.55</ele>
        <time>2019-05-30T10:29:36Z</time>
      </trkpt>
      <trkpt lat="43.05651" lon="5.92397">
        <ele>-7.55</ele>
        <time>2019-05-30T10:29:49Z</time>
      </trkpt>
      <trkpt lat="43.05654" lon="5.9242">
        <ele>-8.03</ele>
        <time>2019-05-30T10:30:02Z</time>
      </trkpt>
      <trkpt lat="43.05661" lon="5.92448">
        <ele>-8.03</ele>
        <time>2019-05-30T10:30:17Z</time>
      </trkpt>
      <trkpt lat="43.0567" lon="5.92476">
        <ele>-8.51</ele>
        <time>2019-05-30T10:30:33Z</time>
      </trkpt>
      <trkpt lat="43.05679" lon="5.92506">
        <ele>-9</ele>
        <time>2019-05-30T10:30:51Z</time>
      </trkpt>
      <trkpt lat="43.05689" lon="5.92532">
        <ele>-8.51</ele>
        <time>2019-05-30T10:31:09Z</time>
      </trkpt>
      <trkpt lat="43.05693" lon="5.92563">
        <ele>-6.59</ele>
        <time>2019-05-30T10:31:28Z</time>
      </trkpt>
      <trkpt lat="43.05695" lon="5.92591">
        <ele>-6.11</ele>
        <time>2019-05-30T10:31:44Z</time>
      </trkpt>
      <trkpt lat="43.05697" lon="5.92623">
        <ele>-5.63</ele>
        <time>2019-05-30T10:32:01Z</time>
      </trkpt>
      <trkpt lat="43.05703" lon="5.92652">
        <ele>-6.11</ele>
        <time>2019-05-30T10:32:18Z</time>
      </trkpt>
      <trkpt lat="43.05708" lon="5.9268">
        <ele>-5.63</ele>
        <time>2019-05-30T10:32:35Z</time>
      </trkpt>
      <trkpt lat="43.05713" lon="5.92706">
        <ele>-6.11</ele>
        <time>2019-05-30T10:32:52Z</time>
      </trkpt>
      <trkpt lat="43.05715" lon="5.92737">
        <ele>-6.11</ele>
        <time>2019-05-30T10:33:10Z</time>
      </trkpt>
      <trkpt lat="43.0572" lon="5.92767">
        <ele>-6.59</ele>
        <time>2019-05-30T10:33:28Z</time>
      </trkpt>
      <trkpt lat="43.05724" lon="5.92798">
        <ele>-5.63</ele>
        <time>2019-05-30T10:33:46Z</time>
      </trkpt>
      <trkpt lat="43.05727" lon="5.92829">
        <ele>-5.15</ele>
        <time>2019-05-30T10:34:05Z</time>
      </trkpt>
      <trkpt lat="43.0573" lon="5.92859">
        <ele>-5.15</ele>
        <time>2019-05-30T10:34:22Z</time>
      </trkpt>
      <trkpt lat="43.05735" lon="5.92892">
        <ele>-5.63</ele>
        <time>2019-05-30T10:34:42Z</time>
      </trkpt>
      <trkpt lat="43.05743" lon="5.92921">
        <ele>-5.63</ele>
        <time>2019-05-30T10:35:00Z</time>
      </trkpt>
      <trkpt lat="43.05751" lon="5.92947">
        <ele>-5.15</ele>
        <time>2019-05-30T10:35:19Z</time>
      </trkpt>
      <trkpt lat="43.05764" lon="5.92972">
        <ele>-4.67</ele>
        <time>2019-05-30T10:35:39Z</time>
      </trkpt>
      <trkpt lat="43.05776" lon="5.92999">
        <ele>-4.19</ele>
        <time>2019-05-30T10:35:58Z</time>
      </trkpt>
      <trkpt lat="43.05788" lon="5.93028">
        <ele>-3.71</ele>
        <time>2019-05-30T10:36:17Z</time>
      </trkpt>
      <trkpt lat="43.05799" lon="5.93057">
        <ele>-3.23</ele>
        <time>2019-05-30T10:36:36Z</time>
      </trkpt>
      <trkpt lat="43.05811" lon="5.93086">
        <ele>-4.19</ele>
        <time>2019-05-30T10:36:55Z</time>
      </trkpt>
      <trkpt lat="43.05823" lon="5.93109">
        <ele>-4.19</ele>
        <time>2019-05-30T10:37:11Z</time>
      </trkpt>
      <trkpt lat="43.05825" lon="5.93113">
        <ele>-4.19</ele>
        <time>2019-05-30T10:37:14Z</time>
      </trkpt>
      <trkpt lat="43.05836" lon="5.93137">
        <ele>-4.67</ele>
        <time>2019-05-30T10:37:31Z</time>
      </trkpt>
      <trkpt lat="43.05846" lon="5.9316">
        <ele>-5.15</ele>
        <time>2019-05-30T10:37:48Z</time>
      </trkpt>
      <trkpt lat="43.05849" lon="5.93167">
        <ele>-5.15</ele>
        <time>2019-05-30T10:37:53Z</time>
      </trkpt>
      <trkpt lat="43.05858" lon="5.93189">
        <ele>-4.67</ele>
        <time>2019-05-30T10:38:09Z</time>
      </trkpt>
      <trkpt lat="43.05868" lon="5.93218">
        <ele>-4.19</ele>
        <time>2019-05-30T10:38:28Z</time>
      </trkpt>
      <trkpt lat="43.05879" lon="5.93252">
        <ele>-4.19</ele>
        <time>2019-05-30T10:38:49Z</time>
      </trkpt>
      <trkpt lat="43.05889" lon="5.93281">
        <ele>-3.71</ele>
        <time>2019-05-30T10:39:07Z</time>
      </trkpt>
      <trkpt lat="43.05898" lon="5.93309">
        <ele>-3.71</ele>
        <time>2019-05-30T10:39:25Z</time>
      </trkpt>
      <trkpt lat="43.05908" lon="5.93338">
        <ele>-3.23</ele>
        <time>2019-05-30T10:39:44Z</time>
      </trkpt>
      <trkpt lat="43.05918" lon="5.93366">
        <ele>-3.23</ele>
        <time>2019-05-30T10:40:02Z</time>
      </trkpt>
      <trkpt lat="43.05928" lon="5.93391">
        <ele>-3.71</ele>
        <time>2019-05-30T10:40:19Z</time>
      </trkpt>
      <trkpt lat="43.05938" lon="5.93416">
        <ele>-3.71</ele>
        <time>2019-05-30T10:40:37Z</time>
      </trkpt>
      <trkpt lat="43.05949" lon="5.93438">
        <ele>-4.67</ele>
        <time>2019-05-30T10:40:53Z</time>
      </trkpt>
      <trkpt lat="43.05959" lon="5.93464">
        <ele>-4.19</ele>
        <time>2019-05-30T10:41:12Z</time>
      </trkpt>
      <trkpt lat="43.05969" lon="5.93491">
        <ele>-4.67</ele>
        <time>2019-05-30T10:41:33Z</time>
      </trkpt>
      <trkpt lat="43.0597" lon="5.93495">
        <ele>-4.19</ele>
        <time>2019-05-30T10:41:35Z</time>
      </trkpt>
      <trkpt lat="43.05979" lon="5.93518">
        <ele>-4.19</ele>
        <time>2019-05-30T10:41:52Z</time>
      </trkpt>
      <trkpt lat="43.05988" lon="5.93539">
        <ele>-4.19</ele>
        <time>2019-05-30T10:42:08Z</time>
      </trkpt>
      <trkpt lat="43.05991" lon="5.9355">
        <ele>-4.67</ele>
        <time>2019-05-30T10:42:16Z</time>
      </trkpt>
      <trkpt lat="43.05992" lon="5.93558">
        <ele>-4.67</ele>
        <time>2019-05-30T10:42:21Z</time>
      </trkpt>
      <trkpt lat="43.05993" lon="5.93589">
        <ele>-4.67</ele>
        <time>2019-05-30T10:42:39Z</time>
      </trkpt>
      <trkpt lat="43.05996" lon="5.93615">
        <ele>-5.15</ele>
        <time>2019-05-30T10:42:54Z</time>
      </trkpt>
      <trkpt lat="43.05997" lon="5.93628">
        <ele>-5.63</ele>
        <time>2019-05-30T10:43:01Z</time>
      </trkpt>
      <trkpt lat="43.06002" lon="5.93659">
        <ele>-5.63</ele>
        <time>2019-05-30T10:43:18Z</time>
      </trkpt>
      <trkpt lat="43.06007" lon="5.93685">
        <ele>-5.63</ele>
        <time>2019-05-30T10:43:34Z</time>
      </trkpt>
      <trkpt lat="43.06009" lon="5.9371">
        <ele>-5.15</ele>
        <time>2019-05-30T10:43:49Z</time>
      </trkpt>
      <trkpt lat="43.06011" lon="5.93728">
        <ele>-5.15</ele>
        <time>2019-05-30T10:44:00Z</time>
      </trkpt>
      <trkpt lat="43.06013" lon="5.93749">
        <ele>-5.15</ele>
        <time>2019-05-30T10:44:13Z</time>
      </trkpt>
      <trkpt lat="43.06016" lon="5.93771">
        <ele>-5.15</ele>
        <time>2019-05-30T10:44:27Z</time>
      </trkpt>
      <trkpt lat="43.06018" lon="5.93798">
        <ele>-5.63</ele>
        <time>2019-05-30T10:44:45Z</time>
      </trkpt>
      <trkpt lat="43.06021" lon="5.93823">
        <ele>-5.63</ele>
        <time>2019-05-30T10:45:01Z</time>
      </trkpt>
      <trkpt lat="43.06023" lon="5.93845">
        <ele>-5.63</ele>
        <time>2019-05-30T10:45:15Z</time>
      </trkpt>
      <trkpt lat="43.06027" lon="5.93867">
        <ele>-5.63</ele>
        <time>2019-05-30T10:45:31Z</time>
      </trkpt>
      <trkpt lat="43.0603" lon="5.93895">
        <ele>-6.11</ele>
        <time>2019-05-30T10:45:50Z</time>
      </trkpt>
      <trkpt lat="43.06033" lon="5.93921">
        <ele>-6.11</ele>
        <time>2019-05-30T10:46:07Z</time>
      </trkpt>
      <trkpt lat="43.06038" lon="5.93947">
        <ele>-6.11</ele>
        <time>2019-05-30T10:46:25Z</time>
      </trkpt>
      <trkpt lat="43.06043" lon="5.93969">
        <ele>-5.63</ele>
        <time>2019-05-30T10:46:42Z</time>
      </trkpt>
      <trkpt lat="43.0605" lon="5.93988">
        <ele>-5.63</ele>
        <time>2019-05-30T10:46:59Z</time>
      </trkpt>
      <trkpt lat="43.06056" lon="5.94006">
        <ele>-4.67</ele>
        <time>2019-05-30T10:47:14Z</time>
      </trkpt>
      <trkpt lat="43.06062" lon="5.94019">
        <ele>-4.19</ele>
        <time>2019-05-30T10:47:28Z</time>
      </trkpt>
      <trkpt lat="43.06067" lon="5.94037">
        <ele>-4.67</ele>
        <time>2019-05-30T10:47:44Z</time>
      </trkpt>
      <trkpt lat="43.06073" lon="5.94056">
        <ele>-5.15</ele>
        <time>2019-05-30T10:48:01Z</time>
      </trkpt>
      <trkpt lat="43.0608" lon="5.94075">
        <ele>-4.19</ele>
        <time>2019-05-30T10:48:18Z</time>
      </trkpt>
      <trkpt lat="43.06087" lon="5.94099">
        <ele>-5.15</ele>
        <time>2019-05-30T10:48:38Z</time>
      </trkpt>
      <trkpt lat="43.06093" lon="5.94123">
        <ele>-5.63</ele>
        <time>2019-05-30T10:48:57Z</time>
      </trkpt>
      <trkpt lat="43.06098" lon="5.94143">
        <ele>-6.11</ele>
        <time>2019-05-30T10:49:12Z</time>
      </trkpt>
      <trkpt lat="43.06102" lon="5.94163">
        <ele>-5.63</ele>
        <time>2019-05-30T10:49:28Z</time>
      </trkpt>
      <trkpt lat="43.06106" lon="5.94181">
        <ele>-6.11</ele>
        <time>2019-05-30T10:49:41Z</time>
      </trkpt>
      <trkpt lat="43.06107" lon="5.94184">
        <ele>-6.11</ele>
        <time>2019-05-30T10:49:44Z</time>
      </trkpt>
      <trkpt lat="43.06109" lon="5.94192">
        <ele>-6.11</ele>
        <time>2019-05-30T10:49:50Z</time>
      </trkpt>
      <trkpt lat="43.06116" lon="5.94214">
        <ele>-5.15</ele>
        <time>2019-05-30T10:50:08Z</time>
      </trkpt>
      <trkpt lat="43.06123" lon="5.94236">
        <ele>-5.15</ele>
        <time>2019-05-30T10:50:24Z</time>
      </trkpt>
      <trkpt lat="43.06129" lon="5.94256">
        <ele>-5.63</ele>
        <time>2019-05-30T10:50:40Z</time>
      </trkpt>
      <trkpt lat="43.06136" lon="5.94277">
        <ele>-5.63</ele>
        <time>2019-05-30T10:50:57Z</time>
      </trkpt>
      <trkpt lat="43.06144" lon="5.94295">
        <ele>-5.63</ele>
        <time>2019-05-30T10:51:12Z</time>
      </trkpt>
      <trkpt lat="43.06149" lon="5.94312">
        <ele>-5.63</ele>
        <time>2019-05-30T10:51:26Z</time>
      </trkpt>
      <trkpt lat="43.06155" lon="5.94334">
        <ele>-6.59</ele>
        <time>2019-05-30T10:51:44Z</time>
      </trkpt>
      <trkpt lat="43.06161" lon="5.9435">
        <ele>-7.07</ele>
        <time>2019-05-30T10:51:58Z</time>
      </trkpt>
      <trkpt lat="43.06167" lon="5.94372">
        <ele>-5.63</ele>
        <time>2019-05-30T10:52:16Z</time>
      </trkpt>
      <trkpt lat="43.06175" lon="5.94392">
        <ele>-5.15</ele>
        <time>2019-05-30T10:52:32Z</time>
      </trkpt>
      <trkpt lat="43.06182" lon="5.94413">
        <ele>-5.15</ele>
        <time>2019-05-30T10:52:49Z</time>
      </trkpt>
      <trkpt lat="43.06191" lon="5.94432">
        <ele>-5.15</ele>
        <time>2019-05-30T10:53:06Z</time>
      </trkpt>
      <trkpt lat="43.06197" lon="5.94455">
        <ele>-5.15</ele>
        <time>2019-05-30T10:53:22Z</time>
      </trkpt>
      <trkpt lat="43.06201" lon="5.94469">
        <ele>-5.63</ele>
        <time>2019-05-30T10:53:33Z</time>
      </trkpt>
      <trkpt lat="43.06205" lon="5.94491">
        <ele>-5.63</ele>
        <time>2019-05-30T10:53:48Z</time>
      </trkpt>
      <trkpt lat="43.06211" lon="5.9451">
        <ele>-5.63</ele>
        <time>2019-05-30T10:54:02Z</time>
      </trkpt>
      <trkpt lat="43.0622" lon="5.94533">
        <ele>-5.15</ele>
        <time>2019-05-30T10:54:19Z</time>
      </trkpt>
      <trkpt lat="43.0623" lon="5.94553">
        <ele>-4.67</ele>
        <time>2019-05-30T10:54:36Z</time>
      </trkpt>
      <trkpt lat="43.06238" lon="5.9457">
        <ele>-4.67</ele>
        <time>2019-05-30T10:54:52Z</time>
      </trkpt>
      <trkpt lat="43.0625" lon="5.94591">
        <ele>-3.71</ele>
        <time>2019-05-30T10:55:12Z</time>
      </trkpt>
      <trkpt lat="43.06259" lon="5.94606">
        <ele>-3.71</ele>
        <time>2019-05-30T10:55:26Z</time>
      </trkpt>
      <trkpt lat="43.06269" lon="5.94621">
        <ele>-3.71</ele>
        <time>2019-05-30T10:55:41Z</time>
      </trkpt>
      <trkpt lat="43.0628" lon="5.9464">
        <ele>-3.71</ele>
        <time>2019-05-30T10:55:58Z</time>
      </trkpt>
      <trkpt lat="43.06291" lon="5.94657">
        <ele>-3.71</ele>
        <time>2019-05-30T10:56:16Z</time>
      </trkpt>
      <trkpt lat="43.06302" lon="5.94672">
        <ele>-3.71</ele>
        <time>2019-05-30T10:56:33Z</time>
      </trkpt>
      <trkpt lat="43.06316" lon="5.94689">
        <ele>-3.23</ele>
        <time>2019-05-30T10:56:53Z</time>
      </trkpt>
      <trkpt lat="43.06328" lon="5.947">
        <ele>-3.71</ele>
        <time>2019-05-30T10:57:10Z</time>
      </trkpt>
      <trkpt lat="43.06338" lon="5.94715">
        <ele>-4.19</ele>
        <time>2019-05-30T10:57:27Z</time>
      </trkpt>
      <trkpt lat="43.06347" lon="5.94731">
        <ele>-4.19</ele>
        <time>2019-05-30T10:57:45Z</time>
      </trkpt>
      <trkpt lat="43.06357" lon="5.94747">
        <ele>-4.19</ele>
        <time>2019-05-30T10:58:03Z</time>
      </trkpt>
      <trkpt lat="43.06366" lon="5.94765">
        <ele>-4.67</ele>
        <time>2019-05-30T10:58:20Z</time>
      </trkpt>
      <trkpt lat="43.06374" lon="5.94782">
        <ele>-4.67</ele>
        <time>2019-05-30T10:58:37Z</time>
      </trkpt>
      <trkpt lat="43.06382" lon="5.94796">
        <ele>-4.67</ele>
        <time>2019-05-30T10:58:51Z</time>
      </trkpt>
      <trkpt lat="43.06391" lon="5.94813">
        <ele>-4.67</ele>
        <time>2019-05-30T10:59:07Z</time>
      </trkpt>
      <trkpt lat="43.06403" lon="5.94834">
        <ele>-4.67</ele>
        <time>2019-05-30T10:59:26Z</time>
      </trkpt>
      <trkpt lat="43.06413" lon="5.94849">
        <ele>-5.15</ele>
        <time>2019-05-30T10:59:40Z</time>
      </trkpt>
      <trkpt lat="43.06428" lon="5.94866">
        <ele>-4.67</ele>
        <time>2019-05-30T10:59:58Z</time>
      </trkpt>
      <trkpt lat="43.06439" lon="5.94877">
        <ele>-4.19</ele>
        <time>2019-05-30T11:00:10Z</time>
      </trkpt>
      <trkpt lat="43.06441" lon="5.94879">
        <ele>-4.19</ele>
        <time>2019-05-30T11:00:12Z</time>
      </trkpt>
      <trkpt lat="43.06443" lon="5.94881">
        <ele>-3.71</ele>
        <time>2019-05-30T11:00:15Z</time>
      </trkpt>
      <trkpt lat="43.06449" lon="5.94885">
        <ele>-3.23</ele>
        <time>2019-05-30T11:00:21Z</time>
      </trkpt>
      <trkpt lat="43.06461" lon="5.94894">
        <ele>-3.71</ele>
        <time>2019-05-30T11:00:33Z</time>
      </trkpt>
      <trkpt lat="43.06473" lon="5.94907">
        <ele>-4.19</ele>
        <time>2019-05-30T11:00:47Z</time>
      </trkpt>
      <trkpt lat="43.06485" lon="5.94921">
        <ele>-4.67</ele>
        <time>2019-05-30T11:01:00Z</time>
      </trkpt>
      <trkpt lat="43.06499" lon="5.94938">
        <ele>-5.15</ele>
        <time>2019-05-30T11:01:16Z</time>
      </trkpt>
      <trkpt lat="43.06516" lon="5.94957">
        <ele>-5.63</ele>
        <time>2019-05-30T11:01:34Z</time>
      </trkpt>
      <trkpt lat="43.0653" lon="5.94972">
        <ele>-5.15</ele>
        <time>2019-05-30T11:01:49Z</time>
      </trkpt>
      <trkpt lat="43.06546" lon="5.94992">
        <ele>-4.67</ele>
        <time>2019-05-30T11:02:07Z</time>
      </trkpt>
      <trkpt lat="43.06557" lon="5.9501">
        <ele>-5.63</ele>
        <time>2019-05-30T11:02:22Z</time>
      </trkpt>
      <trkpt lat="43.06571" lon="5.95026">
        <ele>-5.63</ele>
        <time>2019-05-30T11:02:38Z</time>
      </trkpt>
      <trkpt lat="43.06587" lon="5.95039">
        <ele>-5.15</ele>
        <time>2019-05-30T11:02:55Z</time>
      </trkpt>
      <trkpt lat="43.06604" lon="5.95052">
        <ele>-5.15</ele>
        <time>2019-05-30T11:03:12Z</time>
      </trkpt>
      <trkpt lat="43.0662" lon="5.95067">
        <ele>-4.67</ele>
        <time>2019-05-30T11:03:29Z</time>
      </trkpt>
      <trkpt lat="43.06634" lon="5.9508">
        <ele>-4.67</ele>
        <time>2019-05-30T11:03:44Z</time>
      </trkpt>
      <trkpt lat="43.06649" lon="5.95097">
        <ele>-4.67</ele>
        <time>2019-05-30T11:04:01Z</time>
      </trkpt>
      <trkpt lat="43.06661" lon="5.95117">
        <ele>-4.19</ele>
        <time>2019-05-30T11:04:18Z</time>
      </trkpt>
      <trkpt lat="43.06676" lon="5.95135">
        <ele>-4.67</ele>
        <time>2019-05-30T11:04:36Z</time>
      </trkpt>
      <trkpt lat="43.06689" lon="5.95152">
        <ele>-5.15</ele>
        <time>2019-05-30T11:04:52Z</time>
      </trkpt>
      <trkpt lat="43.06701" lon="5.95169">
        <ele>-5.15</ele>
        <time>2019-05-30T11:05:07Z</time>
      </trkpt>
      <trkpt lat="43.06715" lon="5.95186">
        <ele>-5.15</ele>
        <time>2019-05-30T11:05:23Z</time>
      </trkpt>
      <trkpt lat="43.06736" lon="5.95205">
        <ele>-4.67</ele>
        <time>2019-05-30T11:05:43Z</time>
      </trkpt>
      <trkpt lat="43.06751" lon="5.9522">
        <ele>-4.67</ele>
        <time>2019-05-30T11:05:58Z</time>
      </trkpt>
      <trkpt lat="43.06767" lon="5.95235">
        <ele>-4.19</ele>
        <time>2019-05-30T11:06:13Z</time>
      </trkpt>
      <trkpt lat="43.06783" lon="5.95249">
        <ele>-4.67</ele>
        <time>2019-05-30T11:06:28Z</time>
      </trkpt>
      <trkpt lat="43.06799" lon="5.95264">
        <ele>-4.19</ele>
        <time>2019-05-30T11:06:44Z</time>
      </trkpt>
      <trkpt lat="43.06821" lon="5.95286">
        <ele>-4.19</ele>
        <time>2019-05-30T11:07:06Z</time>
      </trkpt>
      <trkpt lat="43.06838" lon="5.95302">
        <ele>-3.71</ele>
        <time>2019-05-30T11:07:23Z</time>
      </trkpt>
      <trkpt lat="43.06859" lon="5.95323">
        <ele>-3.23</ele>
        <time>2019-05-30T11:07:43Z</time>
      </trkpt>
      <trkpt lat="43.06881" lon="5.95342">
        <ele>-3.71</ele>
        <time>2019-05-30T11:08:03Z</time>
      </trkpt>
      <trkpt lat="43.06897" lon="5.95359">
        <ele>-4.67</ele>
        <time>2019-05-30T11:08:19Z</time>
      </trkpt>
      <trkpt lat="43.06915" lon="5.95376">
        <ele>-4.67</ele>
        <time>2019-05-30T11:08:36Z</time>
      </trkpt>
      <trkpt lat="43.06934" lon="5.95395">
        <ele>-4.67</ele>
        <time>2019-05-30T11:08:55Z</time>
      </trkpt>
      <trkpt lat="43.06952" lon="5.95414">
        <ele>-5.15</ele>
        <time>2019-05-30T11:09:13Z</time>
      </trkpt>
      <trkpt lat="43.0697" lon="5.95431">
        <ele>-5.15</ele>
        <time>2019-05-30T11:09:31Z</time>
      </trkpt>
      <trkpt lat="43.06988" lon="5.95449">
        <ele>-4.67</ele>
        <time>2019-05-30T11:09:50Z</time>
      </trkpt>
      <trkpt lat="43.07001" lon="5.95463">
        <ele>-5.15</ele>
        <time>2019-05-30T11:10:04Z</time>
      </trkpt>
      <trkpt lat="43.07017" lon="5.95479">
        <ele>-6.11</ele>
        <time>2019-05-30T11:10:20Z</time>
      </trkpt>
      <trkpt lat="43.07027" lon="5.95492">
        <ele>-5.63</ele>
        <time>2019-05-30T11:10:32Z</time>
      </trkpt>
      <trkpt lat="43.07043" lon="5.95509">
        <ele>-5.63</ele>
        <time>2019-05-30T11:10:50Z</time>
      </trkpt>
      <trkpt lat="43.07059" lon="5.95525">
        <ele>-5.15</ele>
        <time>2019-05-30T11:11:07Z</time>
      </trkpt>
      <trkpt lat="43.07072" lon="5.95541">
        <ele>-5.63</ele>
        <time>2019-05-30T11:11:23Z</time>
      </trkpt>
      <trkpt lat="43.07089" lon="5.95559">
        <ele>-5.63</ele>
        <time>2019-05-30T11:11:41Z</time>
      </trkpt>
      <trkpt lat="43.07105" lon="5.95576">
        <ele>-6.11</ele>
        <time>2019-05-30T11:11:58Z</time>
      </trkpt>
      <trkpt lat="43.07121" lon="5.95597">
        <ele>-6.11</ele>
        <time>2019-05-30T11:12:16Z</time>
      </trkpt>
      <trkpt lat="43.07128" lon="5.95605">
        <ele>-5.63</ele>
        <time>2019-05-30T11:12:24Z</time>
      </trkpt>
      <trkpt lat="43.0714" lon="5.95621">
        <ele>-4.67</ele>
        <time>2019-05-30T11:12:39Z</time>
      </trkpt>
      <trkpt lat="43.07151" lon="5.95635">
        <ele>-4.67</ele>
        <time>2019-05-30T11:12:52Z</time>
      </trkpt>
      <trkpt lat="43.07166" lon="5.95653">
        <ele>-5.15</ele>
        <time>2019-05-30T11:13:09Z</time>
      </trkpt>
      <trkpt lat="43.07182" lon="5.95669">
        <ele>-5.15</ele>
        <time>2019-05-30T11:13:25Z</time>
      </trkpt>
      <trkpt lat="43.07196" lon="5.95684">
        <ele>-5.15</ele>
        <time>2019-05-30T11:13:40Z</time>
      </trkpt>
      <trkpt lat="43.07211" lon="5.957">
        <ele>-4.67</ele>
        <time>2019-05-30T11:13:55Z</time>
      </trkpt>
      <trkpt lat="43.07231" lon="5.95721">
        <ele>-5.15</ele>
        <time>2019-05-30T11:14:14Z</time>
      </trkpt>
      <trkpt lat="43.0725" lon="5.95742">
        <ele>-5.63</ele>
        <time>2019-05-30T11:14:32Z</time>
      </trkpt>
      <trkpt lat="43.07254" lon="5.95747">
        <ele>-5.63</ele>
        <time>2019-05-30T11:14:36Z</time>
      </trkpt>
      <trkpt lat="43.07261" lon="5.95755">
        <ele>-5.63</ele>
        <time>2019-05-30T11:14:43Z</time>
      </trkpt>
      <trkpt lat="43.07265" lon="5.95762">
        <ele>-5.15</ele>
        <time>2019-05-30T11:14:48Z</time>
      </trkpt>
      <trkpt lat="43.07284" lon="5.95782">
        <ele>-5.15</ele>
        <time>2019-05-30T11:15:06Z</time>
      </trkpt>
      <trkpt lat="43.07307" lon="5.95804">
        <ele>-4.67</ele>
        <time>2019-05-30T11:15:25Z</time>
      </trkpt>
      <trkpt lat="43.07336" lon="5.95826">
        <ele>-4.67</ele>
        <time>2019-05-30T11:15:46Z</time>
      </trkpt>
      <trkpt lat="43.07364" lon="5.95844">
        <ele>-5.63</ele>
        <time>2019-05-30T11:16:04Z</time>
      </trkpt>
      <trkpt lat="43.07391" lon="5.95861">
        <ele>-5.63</ele>
        <time>2019-05-30T11:16:22Z</time>
      </trkpt>
      <trkpt lat="43.07418" lon="5.9588">
        <ele>-6.11</ele>
        <time>2019-05-30T11:16:39Z</time>
      </trkpt>
      <trkpt lat="43.07447" lon="5.95899">
        <ele>-5.63</ele>
        <time>2019-05-30T11:16:58Z</time>
      </trkpt>
      <trkpt lat="43.0748" lon="5.95918">
        <ele>-5.63</ele>
        <time>2019-05-30T11:17:18Z</time>
      </trkpt>
      <trkpt lat="43.07506" lon="5.95935">
        <ele>-5.63</ele>
        <time>2019-05-30T11:17:34Z</time>
      </trkpt>
      <trkpt lat="43.07536" lon="5.95953">
        <ele>-5.63</ele>
        <time>2019-05-30T11:17:52Z</time>
      </trkpt>
      <trkpt lat="43.07563" lon="5.95964">
        <ele>-6.11</ele>
        <time>2019-05-30T11:18:09Z</time>
      </trkpt>
      <trkpt lat="43.07596" lon="5.95963">
        <ele>-4.67</ele>
        <time>2019-05-30T11:18:29Z</time>
      </trkpt>
      <trkpt lat="43.07633" lon="5.95946">
        <ele>-4.67</ele>
        <time>2019-05-30T11:18:50Z</time>
      </trkpt>
      <trkpt lat="43.0767" lon="5.95926">
        <ele>-4.67</ele>
        <time>2019-05-30T11:19:10Z</time>
      </trkpt>
      <trkpt lat="43.07711" lon="5.95906">
        <ele>-5.15</ele>
        <time>2019-05-30T11:19:30Z</time>
      </trkpt>
      <trkpt lat="43.07753" lon="5.9588">
        <ele>-4.67</ele>
        <time>2019-05-30T11:19:52Z</time>
      </trkpt>
      <trkpt lat="43.07793" lon="5.95856">
        <ele>-4.67</ele>
        <time>2019-05-30T11:20:13Z</time>
      </trkpt>
      <trkpt lat="43.07831" lon="5.95837">
        <ele>-5.15</ele>
        <time>2019-05-30T11:20:32Z</time>
      </trkpt>
      <trkpt lat="43.07873" lon="5.95812">
        <ele>-4.67</ele>
        <time>2019-05-30T11:20:53Z</time>
      </trkpt>
      <trkpt lat="43.07916" lon="5.95786">
        <ele>-4.67</ele>
        <time>2019-05-30T11:21:15Z</time>
      </trkpt>
      <trkpt lat="43.07947" lon="5.95764">
        <ele>-4.19</ele>
        <time>2019-05-30T11:21:31Z</time>
      </trkpt>
      <trkpt lat="43.07986" lon="5.95739">
        <ele>-3.71</ele>
        <time>2019-05-30T11:21:51Z</time>
      </trkpt>
      <trkpt lat="43.08019" lon="5.95718">
        <ele>-4.19</ele>
        <time>2019-05-30T11:22:09Z</time>
      </trkpt>
      <trkpt lat="43.08058" lon="5.95694">
        <ele>-3.23</ele>
        <time>2019-05-30T11:22:30Z</time>
      </trkpt>
      <trkpt lat="43.08101" lon="5.95669">
        <ele>-3.71</ele>
        <time>2019-05-30T11:22:53Z</time>
      </trkpt>
      <trkpt lat="43.08139" lon="5.95649">
        <ele>-3.71</ele>
        <time>2019-05-30T11:23:14Z</time>
      </trkpt>
      <trkpt lat="43.08177" lon="5.9563">
        <ele>-3.71</ele>
        <time>2019-05-30T11:23:35Z</time>
      </trkpt>
      <trkpt lat="43.08214" lon="5.9561">
        <ele>-4.67</ele>
        <time>2019-05-30T11:23:56Z</time>
      </trkpt>
      <trkpt lat="43.08252" lon="5.9559">
        <ele>-4.67</ele>
        <time>2019-05-30T11:24:19Z</time>
      </trkpt>
      <trkpt lat="43.08285" lon="5.95569">
        <ele>-5.15</ele>
        <time>2019-05-30T11:24:38Z</time>
      </trkpt>
      <trkpt lat="43.08324" lon="5.95547">
        <ele>-5.15</ele>
        <time>2019-05-30T11:25:01Z</time>
      </trkpt>
      <trkpt lat="43.08361" lon="5.95527">
        <ele>-4.67</ele>
        <time>2019-05-30T11:25:23Z</time>
      </trkpt>
      <trkpt lat="43.08407" lon="5.95503">
        <ele>-5.15</ele>
        <time>2019-05-30T11:25:49Z</time>
      </trkpt>
      <trkpt lat="43.08448" lon="5.95481">
        <ele>-5.63</ele>
        <time>2019-05-30T11:26:12Z</time>
      </trkpt>
      <trkpt lat="43.08489" lon="5.95459">
        <ele>-5.15</ele>
        <time>2019-05-30T11:26:36Z</time>
      </trkpt>
      <trkpt lat="43.08527" lon="5.95439">
        <ele>-5.15</ele>
        <time>2019-05-30T11:26:59Z</time>
      </trkpt>
      <trkpt lat="43.08571" lon="5.95417">
        <ele>-5.15</ele>
        <time>2019-05-30T11:27:25Z</time>
      </trkpt>
      <trkpt lat="43.08608" lon="5.95396">
        <ele>-4.67</ele>
        <time>2019-05-30T11:27:46Z</time>
      </trkpt>
      <trkpt lat="43.08647" lon="5.95376">
        <ele>-5.63</ele>
        <time>2019-05-30T11:28:08Z</time>
      </trkpt>
      <trkpt lat="43.08688" lon="5.95354">
        <ele>-6.11</ele>
        <time>2019-05-30T11:28:30Z</time>
      </trkpt>
      <trkpt lat="43.08732" lon="5.95332">
        <ele>-6.11</ele>
        <time>2019-05-30T11:28:55Z</time>
      </trkpt>
      <trkpt lat="43.0877" lon="5.95314">
        <ele>-5.63</ele>
        <time>2019-05-30T11:29:19Z</time>
      </trkpt>
      <trkpt lat="43.08802" lon="5.95297">
        <ele>-6.11</ele>
        <time>2019-05-30T11:29:42Z</time>
      </trkpt>
      <trkpt lat="43.08834" lon="5.95283">
        <ele>-5.15</ele>
        <time>2019-05-30T11:30:05Z</time>
      </trkpt>
      <trkpt lat="43.08867" lon="5.95271">
        <ele>-3.71</ele>
        <time>2019-05-30T11:30:29Z</time>
      </trkpt>
      <trkpt lat="43.08896" lon="5.95265">
        <ele>-4.19</ele>
        <time>2019-05-30T11:30:51Z</time>
      </trkpt>
      <trkpt lat="43.08925" lon="5.95257">
        <ele>-5.15</ele>
        <time>2019-05-30T11:31:15Z</time>
      </trkpt>
      <trkpt lat="43.08952" lon="5.95247">
        <ele>-3.71</ele>
        <time>2019-05-30T11:31:36Z</time>
      </trkpt>
      <trkpt lat="43.08976" lon="5.95243">
        <ele>-3.71</ele>
        <time>2019-05-30T11:31:55Z</time>
      </trkpt>
      <trkpt lat="43.09004" lon="5.95242">
        <ele>-4.67</ele>
        <time>2019-05-30T11:32:16Z</time>
      </trkpt>
      <trkpt lat="43.09027" lon="5.95245">
        <ele>-5.15</ele>
        <time>2019-05-30T11:32:33Z</time>
      </trkpt>
      <trkpt lat="43.09053" lon="5.95247">
        <ele>-5.15</ele>
        <time>2019-05-30T11:32:52Z</time>
      </trkpt>
      <trkpt lat="43.09083" lon="5.95251">
        <ele>-5.15</ele>
        <time>2019-05-30T11:33:13Z</time>
      </trkpt>
      <trkpt lat="43.09111" lon="5.95249">
        <ele>-4.67</ele>
        <time>2019-05-30T11:33:34Z</time>
      </trkpt>
      <trkpt lat="43.09138" lon="5.95243">
        <ele>-4.19</ele>
        <time>2019-05-30T11:33:52Z</time>
      </trkpt>
      <trkpt lat="43.09173" lon="5.95235">
        <ele>-4.19</ele>
        <time>2019-05-30T11:34:14Z</time>
      </trkpt>
      <trkpt lat="43.092" lon="5.9523">
        <ele>-4.67</ele>
        <time>2019-05-30T11:34:32Z</time>
      </trkpt>
      <trkpt lat="43.09231" lon="5.95226">
        <ele>-4.19</ele>
        <time>2019-05-30T11:34:53Z</time>
      </trkpt>
      <trkpt lat="43.09266" lon="5.95222">
        <ele>-4.19</ele>
        <time>2019-05-30T11:35:15Z</time>
      </trkpt>
      <trkpt lat="43.09299" lon="5.95218">
        <ele>-4.19</ele>
        <time>2019-05-30T11:35:36Z</time>
      </trkpt>
      <trkpt lat="43.09331" lon="5.95212">
        <ele>-3.71</ele>
        <time>2019-05-30T11:35:56Z</time>
      </trkpt>
      <trkpt lat="43.09361" lon="5.95209">
        <ele>-3.71</ele>
        <time>2019-05-30T11:36:16Z</time>
      </trkpt>
      <trkpt lat="43.09386" lon="5.95206">
        <ele>-3.23</ele>
        <time>2019-05-30T11:36:33Z</time>
      </trkpt>
      <trkpt lat="43.09416" lon="5.95202">
        <ele>-2.75</ele>
        <time>2019-05-30T11:36:55Z</time>
      </trkpt>
      <trkpt lat="43.09448" lon="5.95201">
        <ele>-4.19</ele>
        <time>2019-05-30T11:37:18Z</time>
      </trkpt>
      <trkpt lat="43.09473" lon="5.95198">
        <ele>-5.63</ele>
        <time>2019-05-30T11:37:36Z</time>
      </trkpt>
      <trkpt lat="43.09506" lon="5.95173">
        <ele>-5.63</ele>
        <time>2019-05-30T11:38:01Z</time>
      </trkpt>
      <trkpt lat="43.09538" lon="5.9515">
        <ele>-5.63</ele>
        <time>2019-05-30T11:38:23Z</time>
      </trkpt>
      <trkpt lat="43.09571" lon="5.95124">
        <ele>-6.11</ele>
        <time>2019-05-30T11:38:47Z</time>
      </trkpt>
      <trkpt lat="43.09601" lon="5.95095">
        <ele>-6.11</ele>
        <time>2019-05-30T11:39:11Z</time>
      </trkpt>
      <trkpt lat="43.09628" lon="5.95069">
        <ele>-6.59</ele>
        <time>2019-05-30T11:39:34Z</time>
      </trkpt>
      <trkpt lat="43.09657" lon="5.95042">
        <ele>-6.59</ele>
        <time>2019-05-30T11:40:00Z</time>
      </trkpt>
      <trkpt lat="43.09684" lon="5.95018">
        <ele>-6.59</ele>
        <time>2019-05-30T11:40:25Z</time>
      </trkpt>
      <trkpt lat="43.09711" lon="5.94995">
        <ele>-7.07</ele>
        <time>2019-05-30T11:40:50Z</time>
      </trkpt>
      <trkpt lat="43.09736" lon="5.94974">
        <ele>-6.59</ele>
        <time>2019-05-30T11:41:13Z</time>
      </trkpt>
      <trkpt lat="43.09768" lon="5.94948">
        <ele>-7.07</ele>
        <time>2019-05-30T11:41:37Z</time>
      </trkpt>
      <trkpt lat="43.09809" lon="5.94913">
        <ele>-6.59</ele>
        <time>2019-05-30T11:42:02Z</time>
      </trkpt>
      <trkpt lat="43.09841" lon="5.94883">
        <ele>-6.59</ele>
        <time>2019-05-30T11:42:21Z</time>
      </trkpt>
      <trkpt lat="43.09872" lon="5.94853">
        <ele>-6.11</ele>
        <time>2019-05-30T11:42:40Z</time>
      </trkpt>
      <trkpt lat="43.09911" lon="5.94816">
        <ele>-5.63</ele>
        <time>2019-05-30T11:43:02Z</time>
      </trkpt>
      <trkpt lat="43.09949" lon="5.94779">
        <ele>-5.15</ele>
        <time>2019-05-30T11:43:23Z</time>
      </trkpt>
      <trkpt lat="43.09991" lon="5.94742">
        <ele>-5.63</ele>
        <time>2019-05-30T11:43:46Z</time>
      </trkpt>
      <trkpt lat="43.10036" lon="5.94707">
        <ele>-5.63</ele>
        <time>2019-05-30T11:44:10Z</time>
      </trkpt>
      <trkpt lat="43.10071" lon="5.94679">
        <ele>-5.63</ele>
        <time>2019-05-30T11:44:30Z</time>
      </trkpt>
      <trkpt lat="43.10109" lon="5.94648">
        <ele>-5.15</ele>
        <time>2019-05-30T11:44:51Z</time>
      </trkpt>
      <trkpt lat="43.10153" lon="5.94612">
        <ele>-5.63</ele>
        <time>2019-05-30T11:45:15Z</time>
      </trkpt>
      <trkpt lat="43.10191" lon="5.94578">
        <ele>-5.63</ele>
        <time>2019-05-30T11:45:36Z</time>
      </trkpt>
      <trkpt lat="43.10237" lon="5.94531">
        <ele>-5.63</ele>
        <time>2019-05-30T11:46:03Z</time>
      </trkpt>
      <trkpt lat="43.10287" lon="5.94473">
        <ele>-5.15</ele>
        <time>2019-05-30T11:46:32Z</time>
      </trkpt>
      <trkpt lat="43.10328" lon="5.94419">
        <ele>-4.67</ele>
        <time>2019-05-30T11:46:56Z</time>
      </trkpt>
      <trkpt lat="43.10337" lon="5.94367">
        <ele>-4.19</ele>
        <time>2019-05-30T11:47:13Z</time>
      </trkpt>
      <trkpt lat="43.10331" lon="5.94304">
        <ele>-4.67</ele>
        <time>2019-05-30T11:47:33Z</time>
      </trkpt>
      <trkpt lat="43.10312" lon="5.94253">
        <ele>-4.67</ele>
        <time>2019-05-30T11:47:53Z</time>
      </trkpt>
      <trkpt lat="43.10297" lon="5.94216">
        <ele>-5.15</ele>
        <time>2019-05-30T11:48:11Z</time>
      </trkpt>
      <trkpt lat="43.10304" lon="5.94156">
        <ele>-3.71</ele>
        <time>2019-05-30T11:48:31Z</time>
      </trkpt>
      <trkpt lat="43.10295" lon="5.94093">
        <ele>-5.63</ele>
        <time>2019-05-30T11:48:50Z</time>
      </trkpt>
      <trkpt lat="43.10277" lon="5.94035">
        <ele>-4.67</ele>
        <time>2019-05-30T11:49:09Z</time>
      </trkpt>
      <trkpt lat="43.10262" lon="5.93958">
        <ele>-5.15</ele>
        <time>2019-05-30T11:49:32Z</time>
      </trkpt>
      <trkpt lat="43.10245" lon="5.9387">
        <ele>-5.15</ele>
        <time>2019-05-30T11:49:56Z</time>
      </trkpt>
      <trkpt lat="43.10228" lon="5.93803">
        <ele>-4.67</ele>
        <time>2019-05-30T11:50:14Z</time>
      </trkpt>
      <trkpt lat="43.10207" lon="5.93739">
        <ele>-5.15</ele>
        <time>2019-05-30T11:50:32Z</time>
      </trkpt>
      <trkpt lat="43.10177" lon="5.93655">
        <ele>-6.11</ele>
        <time>2019-05-30T11:50:56Z</time>
      </trkpt>
      <trkpt lat="43.10149" lon="5.93575">
        <ele>-6.59</ele>
        <time>2019-05-30T11:51:18Z</time>
      </trkpt>
      <trkpt lat="43.10113" lon="5.93485">
        <ele>-5.63</ele>
        <time>2019-05-30T11:51:44Z</time>
      </trkpt>
      <trkpt lat="43.10086" lon="5.93407">
        <ele>-6.11</ele>
        <time>2019-05-30T11:52:07Z</time>
      </trkpt>
      <trkpt lat="43.10052" lon="5.93314">
        <ele>-5.63</ele>
        <time>2019-05-30T11:52:32Z</time>
      </trkpt>
      <trkpt lat="43.1002" lon="5.93212">
        <ele>-5.63</ele>
        <time>2019-05-30T11:52:58Z</time>
      </trkpt>
      <trkpt lat="43.09992" lon="5.93134">
        <ele>-5.15</ele>
        <time>2019-05-30T11:53:18Z</time>
      </trkpt>
      <trkpt lat="43.09961" lon="5.93042">
        <ele>-5.63</ele>
        <time>2019-05-30T11:53:42Z</time>
      </trkpt>
      <trkpt lat="43.09938" lon="5.93033">
        <ele>-5.63</ele>
        <time>2019-05-30T11:53:53Z</time>
      </trkpt>
      <trkpt lat="43.09908" lon="5.93066">
        <ele>-4.67</ele>
        <time>2019-05-30T11:54:14Z</time>
      </trkpt>
      <trkpt lat="43.09878" lon="5.93102">
        <ele>-3.71</ele>
        <time>2019-05-30T11:54:35Z</time>
      </trkpt>
      <trkpt lat="43.09847" lon="5.93148">
        <ele>-3.23</ele>
        <time>2019-05-30T11:54:54Z</time>
      </trkpt>
      <trkpt lat="43.09813" lon="5.93189">
        <ele>-3.71</ele>
        <time>2019-05-30T11:55:12Z</time>
      </trkpt>
      <trkpt lat="43.09784" lon="5.93215">
        <ele>-3.71</ele>
        <time>2019-05-30T11:55:29Z</time>
      </trkpt>
      <trkpt lat="43.09756" lon="5.93253">
        <ele>-3.71</ele>
        <time>2019-05-30T11:55:46Z</time>
      </trkpt>
      <trkpt lat="43.09735" lon="5.9328">
        <ele>-3.23</ele>
        <time>2019-05-30T11:55:59Z</time>
      </trkpt>
      <trkpt lat="43.09709" lon="5.9332">
        <ele>-2.75</ele>
        <time>2019-05-30T11:56:15Z</time>
      </trkpt>
      <trkpt lat="43.09669" lon="5.93373">
        <ele>-2.75</ele>
        <time>2019-05-30T11:56:37Z</time>
      </trkpt>
      <trkpt lat="43.09638" lon="5.93414">
        <ele>-2.75</ele>
        <time>2019-05-30T11:56:54Z</time>
      </trkpt>
      <trkpt lat="43.0961" lon="5.93453">
        <ele>-2.75</ele>
        <time>2019-05-30T11:57:09Z</time>
      </trkpt>
      <trkpt lat="43.09587" lon="5.93508">
        <ele>-4.19</ele>
        <time>2019-05-30T11:57:25Z</time>
      </trkpt>
      <trkpt lat="43.09557" lon="5.9358">
        <ele>-4.19</ele>
        <time>2019-05-30T11:57:45Z</time>
      </trkpt>
      <trkpt lat="43.0953" lon="5.93634">
        <ele>-4.19</ele>
        <time>2019-05-30T11:58:01Z</time>
      </trkpt>
      <trkpt lat="43.095" lon="5.93692">
        <ele>-4.19</ele>
        <time>2019-05-30T11:58:18Z</time>
      </trkpt>
      <trkpt lat="43.09465" lon="5.93762">
        <ele>-4.67</ele>
        <time>2019-05-30T11:58:38Z</time>
      </trkpt>
      <trkpt lat="43.0943" lon="5.93796">
        <ele>-4.67</ele>
        <time>2019-05-30T11:58:54Z</time>
      </trkpt>
      <trkpt lat="43.09415" lon="5.93768">
        <ele>-4.19</ele>
        <time>2019-05-30T11:59:07Z</time>
      </trkpt>
      <trkpt lat="43.09401" lon="5.93725">
        <ele>-4.67</ele>
        <time>2019-05-30T11:59:25Z</time>
      </trkpt>
      <trkpt lat="43.09384" lon="5.93677">
        <ele>-3.71</ele>
        <time>2019-05-30T11:59:43Z</time>
      </trkpt>
      <trkpt lat="43.09361" lon="5.93624">
        <ele>-3.23</ele>
        <time>2019-05-30T12:00:04Z</time>
      </trkpt>
      <trkpt lat="43.09341" lon="5.93565">
        <ele>-2.75</ele>
        <time>2019-05-30T12:00:24Z</time>
      </trkpt>
      <trkpt lat="43.09319" lon="5.93497">
        <ele>-2.75</ele>
        <time>2019-05-30T12:00:45Z</time>
      </trkpt>
      <trkpt lat="43.09312" lon="5.93432">
        <ele>-3.23</ele>
        <time>2019-05-30T12:01:02Z</time>
      </trkpt>
      <trkpt lat="43.09301" lon="5.93336">
        <ele>-4.67</ele>
        <time>2019-05-30T12:01:26Z</time>
      </trkpt>
      <trkpt lat="43.09276" lon="5.93255">
        <ele>-3.71</ele>
        <time>2019-05-30T12:01:47Z</time>
      </trkpt>
      <trkpt lat="43.09259" lon="5.93185">
        <ele>-3.71</ele>
        <time>2019-05-30T12:02:05Z</time>
      </trkpt>
      <trkpt lat="43.09247" lon="5.93121">
        <ele>-2.27</ele>
        <time>2019-05-30T12:02:22Z</time>
      </trkpt>
      <trkpt lat="43.09228" lon="5.93035">
        <ele>-2.75</ele>
        <time>2019-05-30T12:02:46Z</time>
      </trkpt>
      <trkpt lat="43.09211" lon="5.92966">
        <ele>-3.71</ele>
        <time>2019-05-30T12:03:06Z</time>
      </trkpt>
      <trkpt lat="43.09183" lon="5.92912">
        <ele>-4.19</ele>
        <time>2019-05-30T12:03:27Z</time>
      </trkpt>
      <trkpt lat="43.09177" lon="5.92943">
        <ele>-4.19</ele>
        <time>2019-05-30T12:03:39Z</time>
      </trkpt>
      <trkpt lat="43.09162" lon="5.92998">
        <ele>-4.19</ele>
        <time>2019-05-30T12:03:58Z</time>
      </trkpt>
      <trkpt lat="43.09155" lon="5.93049">
        <ele>-4.67</ele>
        <time>2019-05-30T12:04:14Z</time>
      </trkpt>
      <trkpt lat="43.09168" lon="5.93112">
        <ele>-3.23</ele>
        <time>2019-05-30T12:04:35Z</time>
      </trkpt>
      <trkpt lat="43.09177" lon="5.9316">
        <ele>-3.71</ele>
        <time>2019-05-30T12:04:55Z</time>
      </trkpt>
      <trkpt lat="43.09169" lon="5.93199">
        <ele>-3.23</ele>
        <time>2019-05-30T12:05:11Z</time>
      </trkpt>
      <trkpt lat="43.09138" lon="5.93229">
        <ele>-4.19</ele>
        <time>2019-05-30T12:05:29Z</time>
      </trkpt>
      <trkpt lat="43.09108" lon="5.93203">
        <ele>-3.71</ele>
        <time>2019-05-30T12:05:48Z</time>
      </trkpt>
      <trkpt lat="43.09091" lon="5.93175">
        <ele>-4.19</ele>
        <time>2019-05-30T12:06:05Z</time>
      </trkpt>
      <trkpt lat="43.09079" lon="5.93133">
        <ele>-4.19</ele>
        <time>2019-05-30T12:06:27Z</time>
      </trkpt>
      <trkpt lat="43.09058" lon="5.93112">
        <ele>-4.67</ele>
        <time>2019-05-30T12:06:48Z</time>
      </trkpt>
      <trkpt lat="43.09036" lon="5.93111">
        <ele>-4.67</ele>
        <time>2019-05-30T12:07:08Z</time>
      </trkpt>
      <trkpt lat="43.09013" lon="5.93111">
        <ele>-3.71</ele>
        <time>2019-05-30T12:07:31Z</time>
      </trkpt>
      <trkpt lat="43.0899" lon="5.93112">
        <ele>-3.71</ele>
        <time>2019-05-30T12:07:58Z</time>
      </trkpt>
      <trkpt lat="43.08969" lon="5.93112">
        <ele>-4.67</ele>
        <time>2019-05-30T12:08:20Z</time>
      </trkpt>
      <trkpt lat="43.08948" lon="5.93099">
        <ele>-3.71</ele>
        <time>2019-05-30T12:08:40Z</time>
      </trkpt>
      <trkpt lat="43.08924" lon="5.93061">
        <ele>-2.75</ele>
        <time>2019-05-30T12:09:05Z</time>
      </trkpt>
      <trkpt lat="43.08899" lon="5.9302">
        <ele>-3.23</ele>
        <time>2019-05-30T12:09:28Z</time>
      </trkpt>
      <trkpt lat="43.08863" lon="5.92979">
        <ele>-2.75</ele>
        <time>2019-05-30T12:09:56Z</time>
      </trkpt>
      <trkpt lat="43.08829" lon="5.92941">
        <ele>-2.75</ele>
        <time>2019-05-30T12:10:22Z</time>
      </trkpt>
      <trkpt lat="43.08803" lon="5.92913">
        <ele>-2.27</ele>
        <time>2019-05-30T12:10:42Z</time>
      </trkpt>
      <trkpt lat="43.08775" lon="5.92882">
        <ele>-2.27</ele>
        <time>2019-05-30T12:11:04Z</time>
      </trkpt>
      <trkpt lat="43.08746" lon="5.92853">
        <ele>-2.27</ele>
        <time>2019-05-30T12:11:26Z</time>
      </trkpt>
      <trkpt lat="43.08713" lon="5.92826">
        <ele>-2.27</ele>
        <time>2019-05-30T12:11:49Z</time>
      </trkpt>
      <trkpt lat="43.08692" lon="5.92788">
        <ele>-2.75</ele>
        <time>2019-05-30T12:12:10Z</time>
      </trkpt>
      <trkpt lat="43.08657" lon="5.92744">
        <ele>-2.27</ele>
        <time>2019-05-30T12:12:38Z</time>
      </trkpt>
      <trkpt lat="43.08618" lon="5.92708">
        <ele>-1.79</ele>
        <time>2019-05-30T12:13:05Z</time>
      </trkpt>
      <trkpt lat="43.08584" lon="5.92682">
        <ele>-2.75</ele>
        <time>2019-05-30T12:13:29Z</time>
      </trkpt>
      <trkpt lat="43.08554" lon="5.9266">
        <ele>-1.79</ele>
        <time>2019-05-30T12:13:50Z</time>
      </trkpt>
      <trkpt lat="43.08524" lon="5.92633">
        <ele>-1.79</ele>
        <time>2019-05-30T12:14:12Z</time>
      </trkpt>
      <trkpt lat="43.08489" lon="5.92592">
        <ele>-2.27</ele>
        <time>2019-05-30T12:14:39Z</time>
      </trkpt>
      <trkpt lat="43.08458" lon="5.92583">
        <ele>-3.23</ele>
        <time>2019-05-30T12:14:58Z</time>
      </trkpt>
      <trkpt lat="43.08423" lon="5.92566">
        <ele>-4.67</ele>
        <time>2019-05-30T12:15:21Z</time>
      </trkpt>
      <trkpt lat="43.08394" lon="5.92546">
        <ele>-5.15</ele>
        <time>2019-05-30T12:15:41Z</time>
      </trkpt>
      <trkpt lat="43.08363" lon="5.92515">
        <ele>-5.15</ele>
        <time>2019-05-30T12:16:05Z</time>
      </trkpt>
      <trkpt lat="43.08334" lon="5.92488">
        <ele>-5.15</ele>
        <time>2019-05-30T12:16:28Z</time>
      </trkpt>
      <trkpt lat="43.08297" lon="5.9248">
        <ele>-5.63</ele>
        <time>2019-05-30T12:16:52Z</time>
      </trkpt>
      <trkpt lat="43.08257" lon="5.9248">
        <ele>-5.63</ele>
        <time>2019-05-30T12:17:17Z</time>
      </trkpt>
      <trkpt lat="43.08214" lon="5.92479">
        <ele>-7.55</ele>
        <time>2019-05-30T12:17:43Z</time>
      </trkpt>
      <trkpt lat="43.08181" lon="5.92482">
        <ele>-7.55</ele>
        <time>2019-05-30T12:18:10Z</time>
      </trkpt>
      <trkpt lat="43.0815" lon="5.92486">
        <ele>-4.19</ele>
        <time>2019-05-30T12:18:41Z</time>
      </trkpt>
      <trkpt lat="43.08118" lon="5.92489">
        <ele>-2.27</ele>
        <time>2019-05-30T12:19:16Z</time>
      </trkpt>
      <trkpt lat="43.08092" lon="5.92489">
        <ele>-0.82</ele>
        <time>2019-05-30T12:19:46Z</time>
      </trkpt>
      <trkpt lat="43.08071" lon="5.92492">
        <ele>-1.79</ele>
        <time>2019-05-30T12:20:13Z</time>
      </trkpt>
      <trkpt lat="43.08044" lon="5.92496">
        <ele>-3.23</ele>
        <time>2019-05-30T12:20:43Z</time>
      </trkpt>
      <trkpt lat="43.08019" lon="5.925">
        <ele>-2.75</ele>
        <time>2019-05-30T12:21:13Z</time>
      </trkpt>
      <trkpt lat="43.08014" lon="5.92503">
        <ele>-2.27</ele>
        <time>2019-05-30T12:21:38Z</time>
      </trkpt>
      <trkpt lat="43.0801" lon="5.92517">
        <ele>-3.23</ele>
        <time>2019-05-30T12:21:56Z</time>
      </trkpt>
      <trkpt lat="43.07997" lon="5.92518">
        <ele>-2.75</ele>
        <time>2019-05-30T12:22:18Z</time>
      </trkpt>
      <trkpt lat="43.07991" lon="5.92514">
        <ele>-3.23</ele>
        <time>2019-05-30T12:22:43Z</time>
      </trkpt>
      <trkpt lat="43.0799" lon="5.9251">
        <ele>-2.27</ele>
        <time>2019-05-30T12:23:11Z</time>
      </trkpt>
      <trkpt lat="43.0799" lon="5.92508">
        <ele>-1.79</ele>
        <time>2019-05-30T12:23:35Z</time>
      </trkpt>
      <trkpt lat="43.07989" lon="5.92505">
        <ele>-1.79</ele>
        <time>2019-05-30T12:23:57Z</time>
      </trkpt>
      <trkpt lat="43.07989" lon="5.92501">
        <ele>-2.75</ele>
        <time>2019-05-30T12:24:20Z</time>
      </trkpt>
      <trkpt lat="43.07993" lon="5.92506">
        <ele>-1.79</ele>
        <time>2019-05-30T12:24:49Z</time>
      </trkpt>
      <trkpt lat="43.07995" lon="5.92518">
        <ele>-2.75</ele>
        <time>2019-05-30T12:25:08Z</time>
      </trkpt>
      <trkpt lat="43.07995" lon="5.92511">
        <ele>-3.23</ele>
        <time>2019-05-30T12:25:33Z</time>
      </trkpt>
      <trkpt lat="43.07997" lon="5.92511">
        <ele>-4.67</ele>
        <time>2019-05-30T12:26:01Z</time>
      </trkpt>
      <trkpt lat="43.08001" lon="5.92507">
        <ele>-4.19</ele>
        <time>2019-05-30T12:26:25Z</time>
      </trkpt>
      <trkpt lat="43.0802" lon="5.92509">
        <ele>-3.23</ele>
        <time>2019-05-30T12:26:49Z</time>
      </trkpt>
      <trkpt lat="43.08027" lon="5.92495">
        <ele>-6.11</ele>
        <time>2019-05-30T12:27:15Z</time>
      </trkpt>
      <trkpt lat="43.08035" lon="5.92473">
        <ele>-5.63</ele>
        <time>2019-05-30T12:27:38Z</time>
      </trkpt>
      <trkpt lat="43.0804" lon="5.92457">
        <ele>-5.63</ele>
        <time>2019-05-30T12:28:04Z</time>
      </trkpt>
      <trkpt lat="43.08039" lon="5.92454">
        <ele>-5.15</ele>
        <time>2019-05-30T12:28:23Z</time>
      </trkpt>
      <trkpt lat="43.08039" lon="5.92451">
        <ele>-5.15</ele>
        <time>2019-05-30T12:28:49Z</time>
      </trkpt>
      <trkpt lat="43.08039" lon="5.92449">
        <ele>-5.63</ele>
        <time>2019-05-30T12:29:16Z</time>
      </trkpt>
      <trkpt lat="43.08039" lon="5.92449">
        <ele>-5.15</ele>
        <time>2019-05-30T12:29:41Z</time>
      </trkpt>
      <trkpt lat="43.0804" lon="5.9245">
        <ele>-5.15</ele>
        <time>2019-05-30T12:30:09Z</time>
      </trkpt>
      <trkpt lat="43.0804" lon="5.92449">
        <ele>-4.67</ele>
        <time>2019-05-30T12:30:35Z</time>
      </trkpt>
      <trkpt lat="43.0804" lon="5.92447">
        <ele>-5.15</ele>
        <time>2019-05-30T12:31:10Z</time>
      </trkpt>
      <trkpt lat="43.0804" lon="5.92445">
        <ele>-4.67</ele>
        <time>2019-05-30T12:31:45Z</time>
      </trkpt>
      <trkpt lat="43.08041" lon="5.92445">
        <ele>-4.67</ele>
        <time>2019-05-30T12:32:17Z</time>
      </trkpt>
      <trkpt lat="43.08041" lon="5.92445">
        <ele>-5.63</ele>
        <time>2019-05-30T12:32:45Z</time>
      </trkpt>
      <trkpt lat="43.08041" lon="5.92443">
        <ele>-5.63</ele>
        <time>2019-05-30T12:33:14Z</time>
      </trkpt>
      <trkpt lat="43.08041" lon="5.92445">
        <ele>-5.15</ele>
        <time>2019-05-30T12:33:45Z</time>
      </trkpt>
      <trkpt lat="43.08041" lon="5.92445">
        <ele>-5.63</ele>
        <time>2019-05-30T12:34:17Z</time>
      </trkpt>
      <trkpt lat="43.08042" lon="5.92444">
        <ele>-5.15</ele>
        <time>2019-05-30T12:34:50Z</time>
      </trkpt>
      <trkpt lat="43.08042" lon="5.92444">
        <ele>-4.67</ele>
        <time>2019-05-30T12:35:21Z</time>
      </trkpt>
      <trkpt lat="43.08042" lon="5.92444">
        <ele>-4.67</ele>
        <time>2019-05-30T12:35:53Z</time>
      </trkpt>
      <trkpt lat="43.08042" lon="5.92444">
        <ele>-4.19</ele>
        <time>2019-05-30T12:36:29Z</time>
      </trkpt>
      <trkpt lat="43.08041" lon="5.92444">
        <ele>-5.15</ele>
        <time>2019-05-30T12:37:08Z</time>
      </trkpt>
      <trkpt lat="43.08041" lon="5.92444">
        <ele>-6.11</ele>
        <time>2019-05-30T12:37:47Z</time>
      </trkpt>
      <trkpt lat="43.08041" lon="5.92443">
        <ele>-6.59</ele>
        <time>2019-05-30T12:38:19Z</time>
      </trkpt>
      <trkpt lat="43.08041" lon="5.92443">
        <ele>-7.07</ele>
        <time>2019-05-30T12:38:54Z</time>
      </trkpt>
      <trkpt lat="43.08041" lon="5.92443">
        <ele>-6.59</ele>
        <time>2019-05-30T12:39:27Z</time>
      </trkpt>
      <trkpt lat="43.0804" lon="5.92443">
        <ele>-6.11</ele>
        <time>2019-05-30T12:39:58Z</time>
      </trkpt>
      <trkpt lat="43.0804" lon="5.92443">
        <ele>-6.11</ele>
        <time>2019-05-30T12:40:28Z</time>
      </trkpt>
      <trkpt lat="43.0804" lon="5.92443">
        <ele>-6.11</ele>
        <time>2019-05-30T12:41:03Z</time>
      </trkpt>
      <trkpt lat="43.08039" lon="5.92443">
        <ele>-5.15</ele>
        <time>2019-05-30T12:41:37Z</time>
      </trkpt>
      <trkpt lat="43.0804" lon="5.92443">
        <ele>-4.67</ele>
        <time>2019-05-30T12:42:06Z</time>
      </trkpt>
      <trkpt lat="43.0804" lon="5.92442">
        <ele>-4.67</ele>
        <time>2019-05-30T12:42:29Z</time>
      </trkpt>
      <trkpt lat="43.0804" lon="5.92443">
        <ele>-4.67</ele>
        <time>2019-05-30T12:42:58Z</time>
      </trkpt>
      <trkpt lat="43.0804" lon="5.92443">
        <ele>-4.67</ele>
        <time>2019-05-30T12:43:30Z</time>
      </trkpt>
      <trkpt lat="43.0804" lon="5.92444">
        <ele>-3.71</ele>
        <time>2019-05-30T12:44:03Z</time>
      </trkpt>
      <trkpt lat="43.08041" lon="5.92443">
        <ele>-2.75</ele>
        <time>2019-05-30T12:44:36Z</time>
      </trkpt>
      <trkpt lat="43.08041" lon="5.92444">
        <ele>-2.27</ele>
        <time>2019-05-30T12:45:08Z</time>
      </trkpt>
      <trkpt lat="43.0804" lon="5.92444">
        <ele>-2.27</ele>
        <time>2019-05-30T12:45:41Z</time>
      </trkpt>
      <trkpt lat="43.08039" lon="5.92444">
        <ele>-2.75</ele>
        <time>2019-05-30T12:46:19Z</time>
      </trkpt>
      <trkpt lat="43.08039" lon="5.92444">
        <ele>-3.23</ele>
        <time>2019-05-30T12:46:50Z</time>
      </trkpt>
      <trkpt lat="43.0804" lon="5.92445">
        <ele>-3.23</ele>
        <time>2019-05-30T12:47:23Z</time>
      </trkpt>
      <trkpt lat="43.0804" lon="5.92445">
        <ele>-2.27</ele>
        <time>2019-05-30T12:47:58Z</time>
      </trkpt>
      <trkpt lat="43.08039" lon="5.92445">
        <ele>-2.75</ele>
        <time>2019-05-30T12:48:31Z</time>
      </trkpt>
      <trkpt lat="43.08039" lon="5.92445">
        <ele>-3.71</ele>
        <time>2019-05-30T12:49:05Z</time>
      </trkpt>
      <trkpt lat="43.08038" lon="5.92444">
        <ele>-3.71</ele>
        <time>2019-05-30T12:49:39Z</time>
      </trkpt>
      <trkpt lat="43.08038" lon="5.92445">
        <ele>-4.67</ele>
        <time>2019-05-30T12:50:11Z</time>
      </trkpt>
      <trkpt lat="43.08038" lon="5.92444">
        <ele>-5.15</ele>
        <time>2019-05-30T12:50:37Z</time>
      </trkpt>
      <trkpt lat="43.08039" lon="5.92445">
        <ele>-4.67</ele>
        <time>2019-05-30T12:51:12Z</time>
      </trkpt>
      <trkpt lat="43.0804" lon="5.92445">
        <ele>-4.67</ele>
        <time>2019-05-30T12:51:43Z</time>
      </trkpt>
      <trkpt lat="43.0804" lon="5.92445">
        <ele>-4.67</ele>
        <time>2019-05-30T12:51:52Z</time>
      </trkpt>
    </trkseg>
  </trk>
</gpx>